PWSweather.com
Personal Weather Stations
Station Observations
KGAROSWE1
Roswell (historic Mill Village), Roswell, GA 30075

Roswell (historic Mill Village)Roswell, GA 30075

Lat: 34.014545, Lon: -84.358498

Elevation: 1025

Station Type: Davis Vantage Vue

http://www.roswellweather.net

High Low Average
Temperature 46.9°F8.3°C 29.7°F-1.3°C 38.3°F3.5°C
Dew Point 42.9°F6.1°C 29.5°F-1.4°C 36.8°F2.7°C
Winds 5.0 mph 8.0 kmh Calm Calm Calm SWCalm SW
Wind Gusts 6.0 mph9.7 kmh -- 1.0 mph1.6 kmh
Humidity 100% 75% 95%
Pressure 30.30 in1026.1 mb 30.17 in1021.7 mb -
Precipitation 0.00 in0.0 mm - -
Hour Temp Dew Point Humidity Winds Wind Gusts Pressure Precip Precip Rate Daily Precip Total
12:00 AM 33.1°F0.6°C 31.6°F-0.2°C 94% Calm Calm -- 30.30 in1026.1 mb 0.00 in0.0 mm 0.00 in0.0 mm 0.00 in0.0 mm
12:02 AM 33.1°F0.6°C 31.6°F-0.2°C 94% Calm Calm -- 30.30 in1026.1 mb 0.00 in0.0 mm 0.00 in0.0 mm 0.00 in0.0 mm
12:04 AM 33.0°F0.6°C 31.5°F-0.3°C 94% Calm Calm -- 30.30 in1026.1 mb 0.00 in0.0 mm 0.00 in0.0 mm 0.00 in0.0 mm
12:06 AM 33.0°F0.6°C 31.5°F-0.3°C 94% Calm Calm -- 30.30 in1026.1 mb 0.00 in0.0 mm 0.00 in0.0 mm 0.00 in0.0 mm
12:08 AM 32.9°F0.5°C 31.4°F-0.3°C 94% Calm Calm -- 30.30 in1026.1 mb 0.00 in0.0 mm 0.00 in0.0 mm 0.00 in0.0 mm
12:10 AM 32.9°F0.5°C 31.4°F-0.3°C 94% Calm Calm -- 30.30 in1026.1 mb 0.00 in0.0 mm 0.00 in0.0 mm 0.00 in0.0 mm
12:12 AM 32.9°F0.5°C 31.4°F-0.3°C 94% Calm Calm -- 30.30 in1026.1 mb 0.00 in0.0 mm 0.00 in0.0 mm 0.00 in0.0 mm
12:14 AM 32.9°F0.5°C 31.4°F-0.3°C 94% Calm Calm -- 30.30 in1026.1 mb 0.00 in0.0 mm 0.00 in0.0 mm 0.00 in0.0 mm
12:16 AM 32.9°F0.5°C 31.4°F-0.3°C 94% Calm Calm -- 30.30 in1026.1 mb 0.00 in0.0 mm 0.00 in0.0 mm 0.00 in0.0 mm
12:18 AM 32.8°F0.4°C 31.3°F-0.4°C 94% Calm Calm -- 30.31 in1026.4 mb 0.00 in0.0 mm 0.00 in0.0 mm 0.00 in0.0 mm
12:20 AM 32.8°F0.4°C 31.3°F-0.4°C 94% Calm Calm -- 30.30 in1026.1 mb 0.00 in0.0 mm 0.00 in0.0 mm 0.00 in0.0 mm
12:22 AM 32.8°F0.4°C 31.3°F-0.4°C 94% Calm Calm -- 30.30 in1026.1 mb 0.00 in0.0 mm 0.00 in0.0 mm 0.00 in0.0 mm
12:24 AM 32.8°F0.4°C 31.3°F-0.4°C 94% Calm Calm -- 30.30 in1026.1 mb 0.00 in0.0 mm 0.00 in0.0 mm 0.00 in0.0 mm
12:26 AM 32.8°F0.4°C 31.3°F-0.4°C 94% Calm Calm -- 30.30 in1026.1 mb 0.00 in0.0 mm 0.00 in0.0 mm 0.00 in0.0 mm
12:28 AM 32.8°F0.4°C 31.3°F-0.4°C 94% Calm Calm -- 30.30 in1026.1 mb 0.00 in0.0 mm 0.00 in0.0 mm 0.00 in0.0 mm
12:30 AM 32.9°F0.5°C 31.4°F-0.3°C 94% Calm Calm -- 30.30 in1026.1 mb 0.00 in0.0 mm 0.00 in0.0 mm 0.00 in0.0 mm
12:32 AM 32.9°F0.5°C 31.4°F-0.3°C 94% Calm Calm -- 30.30 in1026.1 mb 0.00 in0.0 mm 0.00 in0.0 mm 0.00 in0.0 mm
12:34 AM 32.9°F0.5°C 31.4°F-0.3°C 94% Calm Calm -- 30.30 in1026.1 mb 0.00 in0.0 mm 0.00 in0.0 mm 0.00 in0.0 mm
12:36 AM 32.9°F0.5°C 31.4°F-0.3°C 94% Calm Calm -- 30.30 in1026.1 mb 0.00 in0.0 mm 0.00 in0.0 mm 0.00 in0.0 mm
12:38 AM 32.8°F0.4°C 31.3°F-0.4°C 94% Calm Calm -- 30.30 in1026.1 mb 0.00 in0.0 mm 0.00 in0.0 mm 0.00 in0.0 mm
12:40 AM 32.7°F0.4°C 31.2°F-0.4°C 94% Calm Calm -- 30.30 in1026.1 mb 0.00 in0.0 mm 0.00 in0.0 mm 0.00 in0.0 mm
12:42 AM 32.6°F0.3°C 31.1°F-0.5°C 94% Calm Calm -- 30.30 in1026.1 mb 0.00 in0.0 mm 0.00 in0.0 mm 0.00 in0.0 mm
12:44 AM 32.6°F0.3°C 31.1°F-0.5°C 94% Calm Calm -- 30.30 in1026.1 mb 0.00 in0.0 mm 0.00 in0.0 mm 0.00 in0.0 mm
12:46 AM 32.5°F0.3°C 31.0°F-0.6°C 94% Calm Calm -- 30.30 in1026.1 mb 0.00 in0.0 mm 0.00 in0.0 mm 0.00 in0.0 mm
12:48 AM 32.4°F0.2°C 30.9°F-0.6°C 94% Calm Calm -- 30.30 in1026.1 mb 0.00 in0.0 mm 0.00 in0.0 mm 0.00 in0.0 mm
12:50 AM 32.4°F0.2°C 30.9°F-0.6°C 94% Calm Calm -- 30.30 in1026.1 mb 0.00 in0.0 mm 0.00 in0.0 mm 0.00 in0.0 mm
12:52 AM 32.3°F0.2°C 30.8°F-0.7°C 94% Calm Calm -- 30.30 in1026.1 mb 0.00 in0.0 mm 0.00 in0.0 mm 0.00 in0.0 mm
12:54 AM 32.3°F0.2°C 30.8°F-0.7°C 94% Calm Calm -- 30.30 in1026.1 mb 0.00 in0.0 mm 0.00 in0.0 mm 0.00 in0.0 mm
12:56 AM 32.2°F0.1°C 30.7°F-0.7°C 94% Calm Calm -- 30.30 in1026.1 mb 0.00 in0.0 mm 0.00 in0.0 mm 0.00 in0.0 mm
12:58 AM 32.1°F0.1°C 30.6°F-0.8°C 94% Calm Calm -- 30.30 in1026.1 mb 0.00 in0.0 mm 0.00 in0.0 mm 0.00 in0.0 mm
01:00 AM 32.0°F0.0°C 30.5°F-0.8°C 94% Calm Calm -- 30.30 in1026.1 mb 0.00 in0.0 mm 0.00 in0.0 mm 0.00 in0.0 mm
01:02 AM 32.0°F0.0°C 30.5°F-0.8°C 94% Calm Calm -- 30.29 in1025.7 mb 0.00 in0.0 mm 0.00 in0.0 mm 0.00 in0.0 mm
01:04 AM 32.0°F0.0°C 30.5°F-0.8°C 94% Calm Calm -- 30.29 in1025.7 mb 0.00 in0.0 mm 0.00 in0.0 mm 0.00 in0.0 mm
01:06 AM 32.0°F0.0°C 30.5°F-0.8°C 94% Calm Calm -- 30.29 in1025.7 mb 0.00 in0.0 mm 0.00 in0.0 mm 0.00 in0.0 mm
01:08 AM 31.9°F-0.1°C 30.6°F-0.8°C 95% Calm Calm -- 30.29 in1025.7 mb 0.00 in0.0 mm 0.00 in0.0 mm 0.00 in0.0 mm
01:10 AM 31.9°F-0.1°C 30.6°F-0.8°C 95% Calm Calm -- 30.29 in1025.7 mb 0.00 in0.0 mm 0.00 in0.0 mm 0.00 in0.0 mm
01:12 AM 31.8°F-0.1°C 30.5°F-0.8°C 95% Calm Calm -- 30.29 in1025.7 mb 0.00 in0.0 mm 0.00 in0.0 mm 0.00 in0.0 mm
01:14 AM 31.7°F-0.2°C 30.4°F-0.9°C 95% Calm Calm -- 30.29 in1025.7 mb 0.00 in0.0 mm 0.00 in0.0 mm 0.00 in0.0 mm
01:16 AM 31.7°F-0.2°C 30.4°F-0.9°C 95% Calm Calm -- 30.29 in1025.7 mb 0.00 in0.0 mm 0.00 in0.0 mm 0.00 in0.0 mm
01:18 AM 31.6°F-0.2°C 30.3°F-0.9°C 95% Calm Calm -- 30.29 in1025.7 mb 0.00 in0.0 mm 0.00 in0.0 mm 0.00 in0.0 mm
01:20 AM 31.5°F-0.3°C 30.2°F-1.0°C 95% Calm Calm -- 30.29 in1025.7 mb 0.00 in0.0 mm 0.00 in0.0 mm 0.00 in0.0 mm
01:22 AM 31.5°F-0.3°C 30.2°F-1.0°C 95% Calm Calm -- 30.29 in1025.7 mb 0.00 in0.0 mm 0.00 in0.0 mm 0.00 in0.0 mm
01:24 AM 31.5°F-0.3°C 30.2°F-1.0°C 95% Calm Calm -- 30.29 in1025.7 mb 0.00 in0.0 mm 0.00 in0.0 mm 0.00 in0.0 mm
01:26 AM 31.4°F-0.3°C 30.1°F-1.1°C 95% Calm Calm -- 30.29 in1025.7 mb 0.00 in0.0 mm 0.00 in0.0 mm 0.00 in0.0 mm
01:28 AM 31.4°F-0.3°C 30.1°F-1.1°C 95% Calm Calm -- 30.29 in1025.7 mb 0.00 in0.0 mm 0.00 in0.0 mm 0.00 in0.0 mm
01:30 AM 31.4°F-0.3°C 30.1°F-1.1°C 95% Calm Calm -- 30.29 in1025.7 mb 0.00 in0.0 mm 0.00 in0.0 mm 0.00 in0.0 mm
01:32 AM 31.4°F-0.3°C 30.1°F-1.1°C 95% Calm Calm -- 30.29 in1025.7 mb 0.00 in0.0 mm 0.00 in0.0 mm 0.00 in0.0 mm
01:34 AM 31.3°F-0.4°C 30.0°F-1.1°C 95% Calm Calm -- 30.29 in1025.7 mb 0.00 in0.0 mm 0.00 in0.0 mm 0.00 in0.0 mm
01:36 AM 31.2°F-0.4°C 29.9°F-1.2°C 95% Calm Calm -- 30.29 in1025.7 mb 0.00 in0.0 mm 0.00 in0.0 mm 0.00 in0.0 mm
01:38 AM 31.2°F-0.4°C 30.2°F-1.0°C 96% Calm Calm -- 30.29 in1025.7 mb 0.00 in0.0 mm 0.00 in0.0 mm 0.00 in0.0 mm
01:40 AM 31.1°F-0.5°C 30.1°F-1.1°C 96% Calm Calm -- 30.29 in1025.7 mb 0.00 in0.0 mm 0.00 in0.0 mm 0.00 in0.0 mm
01:42 AM 31.0°F-0.6°C 30.0°F-1.1°C 96% Calm Calm -- 30.29 in1025.7 mb 0.00 in0.0 mm 0.00 in0.0 mm 0.00 in0.0 mm
01:44 AM 31.0°F-0.6°C 29.7°F-1.3°C 95% Calm Calm -- 30.29 in1025.7 mb 0.00 in0.0 mm 0.00 in0.0 mm 0.00 in0.0 mm
01:46 AM 30.9°F-0.6°C 29.6°F-1.3°C 95% Calm Calm -- 30.28 in1025.4 mb 0.00 in0.0 mm 0.00 in0.0 mm 0.00 in0.0 mm
01:48 AM 30.9°F-0.6°C 29.9°F-1.2°C 96% Calm Calm -- 30.28 in1025.4 mb 0.00 in0.0 mm 0.00 in0.0 mm 0.00 in0.0 mm
01:50 AM 30.8°F-0.7°C 29.5°F-1.4°C 95% Calm Calm -- 30.28 in1025.4 mb 0.00 in0.0 mm 0.00 in0.0 mm 0.00 in0.0 mm
01:52 AM 30.8°F-0.7°C 29.8°F-1.2°C 96% Calm Calm -- 30.28 in1025.4 mb 0.00 in0.0 mm 0.00 in0.0 mm 0.00 in0.0 mm
01:54 AM 30.8°F-0.7°C 29.8°F-1.2°C 96% Calm Calm -- 30.28 in1025.4 mb 0.00 in0.0 mm 0.00 in0.0 mm 0.00 in0.0 mm
01:56 AM 30.7°F-0.7°C 29.7°F-1.3°C 96% Calm Calm -- 30.28 in1025.4 mb 0.00 in0.0 mm 0.00 in0.0 mm 0.00 in0.0 mm
01:58 AM 30.7°F-0.7°C 29.7°F-1.3°C 96% Calm Calm -- 30.28 in1025.4 mb 0.00 in0.0 mm 0.00 in0.0 mm 0.00 in0.0 mm
02:00 AM 30.7°F-0.7°C 29.7°F-1.3°C 96% Calm Calm -- 30.28 in1025.4 mb 0.00 in0.0 mm 0.00 in0.0 mm 0.00 in0.0 mm
02:02 AM 30.7°F-0.7°C 29.7°F-1.3°C 96% Calm Calm -- 30.28 in1025.4 mb 0.00 in0.0 mm 0.00 in0.0 mm 0.00 in0.0 mm
02:04 AM 30.6°F-0.8°C 29.6°F-1.3°C 96% Calm Calm -- 30.28 in1025.4 mb 0.00 in0.0 mm 0.00 in0.0 mm 0.00 in0.0 mm
02:06 AM 30.6°F-0.8°C 29.6°F-1.3°C 96% Calm Calm -- 30.27 in1025.1 mb 0.00 in0.0 mm 0.00 in0.0 mm 0.00 in0.0 mm
02:08 AM 30.6°F-0.8°C 29.6°F-1.3°C 96% Calm Calm -- 30.27 in1025.1 mb 0.00 in0.0 mm 0.00 in0.0 mm 0.00 in0.0 mm
02:10 AM 30.6°F-0.8°C 29.6°F-1.3°C 96% Calm Calm -- 30.27 in1025.1 mb 0.00 in0.0 mm 0.00 in0.0 mm 0.00 in0.0 mm
02:12 AM 30.6°F-0.8°C 29.6°F-1.3°C 96% Calm Calm -- 30.27 in1025.1 mb 0.00 in0.0 mm 0.00 in0.0 mm 0.00 in0.0 mm
02:14 AM 30.6°F-0.8°C 29.6°F-1.3°C 96% Calm Calm -- 30.27 in1025.1 mb 0.00 in0.0 mm 0.00 in0.0 mm 0.00 in0.0 mm
02:16 AM 30.5°F-0.8°C 29.5°F-1.4°C 96% Calm Calm -- 30.26 in1024.7 mb 0.00 in0.0 mm 0.00 in0.0 mm 0.00 in0.0 mm
02:18 AM 30.5°F-0.8°C 29.5°F-1.4°C 96% Calm Calm -- 30.27 in1025.1 mb 0.00 in0.0 mm 0.00 in0.0 mm 0.00 in0.0 mm
02:20 AM 30.6°F-0.8°C 29.6°F-1.3°C 96% Calm Calm -- 30.27 in1025.1 mb 0.00 in0.0 mm 0.00 in0.0 mm 0.00 in0.0 mm
02:22 AM 30.6°F-0.8°C 29.6°F-1.3°C 96% Calm Calm -- 30.27 in1025.1 mb 0.00 in0.0 mm 0.00 in0.0 mm 0.00 in0.0 mm
02:24 AM 30.7°F-0.7°C 29.7°F-1.3°C 96% Calm Calm -- 30.27 in1025.1 mb 0.00 in0.0 mm 0.00 in0.0 mm 0.00 in0.0 mm
02:26 AM 30.8°F-0.7°C 29.8°F-1.2°C 96% Calm Calm -- 30.27 in1025.1 mb 0.00 in0.0 mm 0.00 in0.0 mm 0.00 in0.0 mm
02:28 AM 30.7°F-0.7°C 29.7°F-1.3°C 96% Calm Calm -- 30.27 in1025.1 mb 0.00 in0.0 mm 0.00 in0.0 mm 0.00 in0.0 mm
02:30 AM 30.7°F-0.7°C 29.7°F-1.3°C 96% Calm Calm -- 30.26 in1024.7 mb 0.00 in0.0 mm 0.00 in0.0 mm 0.00 in0.0 mm
02:32 AM 30.8°F-0.7°C 29.8°F-1.2°C 96% Calm Calm -- 30.26 in1024.7 mb 0.00 in0.0 mm 0.00 in0.0 mm 0.00 in0.0 mm
02:34 AM 30.8°F-0.7°C 29.8°F-1.2°C 96% Calm Calm -- 30.26 in1024.7 mb 0.00 in0.0 mm 0.00 in0.0 mm 0.00 in0.0 mm
02:36 AM 30.8°F-0.7°C 29.8°F-1.2°C 96% Calm Calm -- 30.26 in1024.7 mb 0.00 in0.0 mm 0.00 in0.0 mm 0.00 in0.0 mm
02:38 AM 30.7°F-0.7°C 29.7°F-1.3°C 96% Calm Calm -- 30.26 in1024.7 mb 0.00 in0.0 mm 0.00 in0.0 mm 0.00 in0.0 mm
02:40 AM 30.7°F-0.7°C 29.7°F-1.3°C 96% Calm Calm -- 30.26 in1024.7 mb 0.00 in0.0 mm 0.00 in0.0 mm 0.00 in0.0 mm
02:42 AM 30.7°F-0.7°C 29.7°F-1.3°C 96% Calm Calm -- 30.26 in1024.7 mb 0.00 in0.0 mm 0.00 in0.0 mm 0.00 in0.0 mm
02:44 AM 30.8°F-0.7°C 29.8°F-1.2°C 96% Calm Calm -- 30.26 in1024.7 mb 0.00 in0.0 mm 0.00 in0.0 mm 0.00 in0.0 mm
02:46 AM 30.8°F-0.7°C 30.1°F-1.1°C 97% Calm Calm -- 30.26 in1024.7 mb 0.00 in0.0 mm 0.00 in0.0 mm 0.00 in0.0 mm
02:48 AM 30.9°F-0.6°C 30.2°F-1.0°C 97% Calm Calm -- 30.26 in1024.7 mb 0.00 in0.0 mm 0.00 in0.0 mm 0.00 in0.0 mm
02:50 AM 30.8°F-0.7°C 30.1°F-1.1°C 97% Calm Calm -- 30.27 in1025.1 mb 0.00 in0.0 mm 0.00 in0.0 mm 0.00 in0.0 mm
02:52 AM 30.8°F-0.7°C 30.1°F-1.1°C 97% Calm Calm -- 30.27 in1025.1 mb 0.00 in0.0 mm 0.00 in0.0 mm 0.00 in0.0 mm
02:54 AM 30.7°F-0.7°C 30.0°F-1.1°C 97% Calm Calm -- 30.27 in1025.1 mb 0.00 in0.0 mm 0.00 in0.0 mm 0.00 in0.0 mm
02:56 AM 30.8°F-0.7°C 30.1°F-1.1°C 97% Calm Calm -- 30.27 in1025.1 mb 0.00 in0.0 mm 0.00 in0.0 mm 0.00 in0.0 mm
02:58 AM 30.8°F-0.7°C 30.1°F-1.1°C 97% Calm Calm -- 30.27 in1025.1 mb 0.00 in0.0 mm 0.00 in0.0 mm 0.00 in0.0 mm
03:00 AM 30.8°F-0.7°C 30.1°F-1.1°C 97% Calm Calm -- 30.27 in1025.1 mb 0.00 in0.0 mm 0.00 in0.0 mm 0.00 in0.0 mm
03:02 AM 30.8°F-0.7°C 30.1°F-1.1°C 97% Calm Calm -- 30.27 in1025.1 mb 0.00 in0.0 mm 0.00 in0.0 mm 0.00 in0.0 mm
03:04 AM 30.7°F-0.7°C 30.0°F-1.1°C 97% Calm Calm -- 30.27 in1025.1 mb 0.00 in0.0 mm 0.00 in0.0 mm 0.00 in0.0 mm
03:06 AM 30.6°F-0.8°C 29.9°F-1.2°C 97% Calm Calm -- 30.27 in1025.1 mb 0.00 in0.0 mm 0.00 in0.0 mm 0.00 in0.0 mm
03:08 AM 30.5°F-0.8°C 29.8°F-1.2°C 97% Calm Calm -- 30.27 in1025.1 mb 0.00 in0.0 mm 0.00 in0.0 mm 0.00 in0.0 mm
03:10 AM 30.5°F-0.8°C 29.8°F-1.2°C 97% Calm Calm -- 30.27 in1025.1 mb 0.00 in0.0 mm 0.00 in0.0 mm 0.00 in0.0 mm
03:12 AM 30.6°F-0.8°C 29.9°F-1.2°C 97% Calm Calm -- 30.27 in1025.1 mb 0.00 in0.0 mm 0.00 in0.0 mm 0.00 in0.0 mm
03:14 AM 30.6°F-0.8°C 29.9°F-1.2°C 97% Calm Calm -- 30.27 in1025.1 mb 0.00 in0.0 mm 0.00 in0.0 mm 0.00 in0.0 mm
03:16 AM 30.6°F-0.8°C 29.9°F-1.2°C 97% Calm Calm -- 30.27 in1025.1 mb 0.00 in0.0 mm 0.00 in0.0 mm 0.00 in0.0 mm
03:18 AM 30.6°F-0.8°C 29.9°F-1.2°C 97% Calm Calm -- 30.27 in1025.1 mb 0.00 in0.0 mm 0.00 in0.0 mm 0.00 in0.0 mm
03:20 AM 30.6°F-0.8°C 29.9°F-1.2°C 97% Calm Calm -- 30.27 in1025.1 mb 0.00 in0.0 mm 0.00 in0.0 mm 0.00 in0.0 mm
03:22 AM 30.7°F-0.7°C 30.0°F-1.1°C 97% Calm Calm -- 30.27 in1025.1 mb 0.00 in0.0 mm 0.00 in0.0 mm 0.00 in0.0 mm
03:24 AM 30.6°F-0.8°C 29.9°F-1.2°C 97% Calm Calm -- 30.27 in1025.1 mb 0.00 in0.0 mm 0.00 in0.0 mm 0.00 in0.0 mm
03:26 AM 30.6°F-0.8°C 29.9°F-1.2°C 97% Calm Calm -- 30.27 in1025.1 mb 0.00 in0.0 mm 0.00 in0.0 mm 0.00 in0.0 mm
03:28 AM 30.6°F-0.8°C 29.9°F-1.2°C 97% Calm Calm -- 30.27 in1025.1 mb 0.00 in0.0 mm 0.00 in0.0 mm 0.00 in0.0 mm
03:30 AM 30.6°F-0.8°C 29.9°F-1.2°C 97% Calm Calm -- 30.28 in1025.4 mb 0.00 in0.0 mm 0.00 in0.0 mm 0.00 in0.0 mm
03:32 AM 30.6°F-0.8°C 29.9°F-1.2°C 97% Calm Calm -- 30.28 in1025.4 mb 0.00 in0.0 mm 0.00 in0.0 mm 0.00 in0.0 mm
03:34 AM 30.6°F-0.8°C 29.9°F-1.2°C 97% Calm Calm -- 30.28 in1025.4 mb 0.00 in0.0 mm 0.00 in0.0 mm 0.00 in0.0 mm
03:36 AM 30.6°F-0.8°C 29.9°F-1.2°C 97% Calm Calm -- 30.28 in1025.4 mb 0.00 in0.0 mm 0.00 in0.0 mm 0.00 in0.0 mm
03:38 AM 30.6°F-0.8°C 29.9°F-1.2°C 97% Calm Calm -- 30.28 in1025.4 mb 0.00 in0.0 mm 0.00 in0.0 mm 0.00 in0.0 mm
03:40 AM 30.6°F-0.8°C 29.9°F-1.2°C 97% Calm Calm -- 30.28 in1025.4 mb 0.00 in0.0 mm 0.00 in0.0 mm 0.00 in0.0 mm
03:42 AM 30.6°F-0.8°C 29.9°F-1.2°C 97% Calm Calm -- 30.28 in1025.4 mb 0.00 in0.0 mm 0.00 in0.0 mm 0.00 in0.0 mm
03:44 AM 30.7°F-0.7°C 30.0°F-1.1°C 97% Calm Calm -- 30.29 in1025.7 mb 0.00 in0.0 mm 0.00 in0.0 mm 0.00 in0.0 mm
03:46 AM 30.7°F-0.7°C 30.0°F-1.1°C 97% Calm Calm -- 30.29 in1025.7 mb 0.00 in0.0 mm 0.00 in0.0 mm 0.00 in0.0 mm
03:48 AM 30.7°F-0.7°C 30.0°F-1.1°C 97% Calm Calm -- 30.29 in1025.7 mb 0.00 in0.0 mm 0.00 in0.0 mm 0.00 in0.0 mm
03:50 AM 30.6°F-0.8°C 29.9°F-1.2°C 97% Calm Calm -- 30.28 in1025.4 mb 0.00 in0.0 mm 0.00 in0.0 mm 0.00 in0.0 mm
03:52 AM 30.6°F-0.8°C 29.9°F-1.2°C 97% Calm Calm -- 30.28 in1025.4 mb 0.00 in0.0 mm 0.00 in0.0 mm 0.00 in0.0 mm
03:54 AM 30.5°F-0.8°C 29.8°F-1.2°C 97% Calm Calm -- 30.28 in1025.4 mb 0.00 in0.0 mm 0.00 in0.0 mm 0.00 in0.0 mm
03:56 AM 30.4°F-0.9°C 29.7°F-1.3°C 97% Calm Calm -- 30.29 in1025.7 mb 0.00 in0.0 mm 0.00 in0.0 mm 0.00 in0.0 mm
03:58 AM 30.5°F-0.8°C 29.8°F-1.2°C 97% Calm Calm -- 30.28 in1025.4 mb 0.00 in0.0 mm 0.00 in0.0 mm 0.00 in0.0 mm
04:00 AM 29.7°F-1.3°C 29.7°F-1.3°C 100% Calm Calm -- 30.29 in1025.7 mb 0.00 in0.0 mm 0.00 in0.0 mm 0.00 in0.0 mm
04:02 AM 29.7°F-1.3°C 29.7°F-1.3°C 100% Calm Calm -- 30.29 in1025.7 mb 0.00 in0.0 mm 0.00 in0.0 mm 0.00 in0.0 mm
04:04 AM 29.7°F-1.3°C 29.7°F-1.3°C 100% Calm Calm -- 30.29 in1025.7 mb 0.00 in0.0 mm 0.00 in0.0 mm 0.00 in0.0 mm
04:06 AM 29.7°F-1.3°C 29.7°F-1.3°C 100% Calm Calm -- 30.29 in1025.7 mb 0.00 in0.0 mm 0.00 in0.0 mm 0.00 in0.0 mm
04:08 AM 29.7°F-1.3°C 29.7°F-1.3°C 100% Calm Calm -- 30.29 in1025.7 mb 0.00 in0.0 mm 0.00 in0.0 mm 0.00 in0.0 mm
04:10 AM 29.7°F-1.3°C 29.7°F-1.3°C 100% Calm Calm -- 30.29 in1025.7 mb 0.00 in0.0 mm 0.00 in0.0 mm 0.00 in0.0 mm
04:12 AM 29.7°F-1.3°C 29.7°F-1.3°C 100% Calm Calm -- 30.29 in1025.7 mb 0.00 in0.0 mm 0.00 in0.0 mm 0.00 in0.0 mm
04:14 AM 29.7°F-1.3°C 29.7°F-1.3°C 100% Calm Calm -- 30.29 in1025.7 mb 0.00 in0.0 mm 0.00 in0.0 mm 0.00 in0.0 mm
04:16 AM 29.7°F-1.3°C 29.7°F-1.3°C 100% Calm Calm -- 30.28 in1025.4 mb 0.00 in0.0 mm 0.00 in0.0 mm 0.00 in0.0 mm
04:18 AM 29.7°F-1.3°C 29.7°F-1.3°C 100% Calm Calm -- 30.28 in1025.4 mb 0.00 in0.0 mm 0.00 in0.0 mm 0.00 in0.0 mm
04:20 AM 29.7°F-1.3°C 29.7°F-1.3°C 100% Calm Calm -- 30.29 in1025.7 mb 0.00 in0.0 mm 0.00 in0.0 mm 0.00 in0.0 mm
04:22 AM 29.7°F-1.3°C 29.7°F-1.3°C 100% Calm Calm -- 30.28 in1025.4 mb 0.00 in0.0 mm 0.00 in0.0 mm 0.00 in0.0 mm
04:24 AM 29.7°F-1.3°C 29.7°F-1.3°C 100% Calm Calm -- 30.28 in1025.4 mb 0.00 in0.0 mm 0.00 in0.0 mm 0.00 in0.0 mm
04:26 AM 29.7°F-1.3°C 29.7°F-1.3°C 100% Calm Calm -- 30.28 in1025.4 mb 0.00 in0.0 mm 0.00 in0.0 mm 0.00 in0.0 mm
04:28 AM 29.7°F-1.3°C 29.7°F-1.3°C 100% Calm Calm -- 30.28 in1025.4 mb 0.00 in0.0 mm 0.00 in0.0 mm 0.00 in0.0 mm
04:30 AM 29.7°F-1.3°C 29.7°F-1.3°C 100% Calm Calm -- 30.28 in1025.4 mb 0.00 in0.0 mm 0.00 in0.0 mm 0.00 in0.0 mm
04:32 AM 29.7°F-1.3°C 29.7°F-1.3°C 100% Calm Calm -- 30.28 in1025.4 mb 0.00 in0.0 mm 0.00 in0.0 mm 0.00 in0.0 mm
04:34 AM 29.7°F-1.3°C 29.7°F-1.3°C 100% Calm Calm -- 30.28 in1025.4 mb 0.00 in0.0 mm 0.00 in0.0 mm 0.00 in0.0 mm
04:36 AM 29.7°F-1.3°C 29.7°F-1.3°C 100% Calm Calm -- 30.28 in1025.4 mb 0.00 in0.0 mm 0.00 in0.0 mm 0.00 in0.0 mm
04:38 AM 29.7°F-1.3°C 29.7°F-1.3°C 100% Calm Calm -- 30.28 in1025.4 mb 0.00 in0.0 mm 0.00 in0.0 mm 0.00 in0.0 mm
04:40 AM 29.7°F-1.3°C 29.7°F-1.3°C 100% Calm Calm -- 30.28 in1025.4 mb 0.00 in0.0 mm 0.00 in0.0 mm 0.00 in0.0 mm
04:42 AM 29.7°F-1.3°C 29.7°F-1.3°C 100% Calm Calm -- 30.28 in1025.4 mb 0.00 in0.0 mm 0.00 in0.0 mm 0.00 in0.0 mm
04:44 AM 29.7°F-1.3°C 29.7°F-1.3°C 100% Calm Calm -- 30.28 in1025.4 mb 0.00 in0.0 mm 0.00 in0.0 mm 0.00 in0.0 mm
04:46 AM 29.7°F-1.3°C 29.7°F-1.3°C 100% Calm Calm -- 30.28 in1025.4 mb 0.00 in0.0 mm 0.00 in0.0 mm 0.00 in0.0 mm
04:48 AM 29.7°F-1.3°C 29.7°F-1.3°C 100% Calm Calm -- 30.28 in1025.4 mb 0.00 in0.0 mm 0.00 in0.0 mm 0.00 in0.0 mm
04:50 AM 29.7°F-1.3°C 29.7°F-1.3°C 100% Calm Calm -- 30.27 in1025.1 mb 0.00 in0.0 mm 0.00 in0.0 mm 0.00 in0.0 mm
04:52 AM 29.7°F-1.3°C 29.7°F-1.3°C 100% Calm Calm -- 30.27 in1025.1 mb 0.00 in0.0 mm 0.00 in0.0 mm 0.00 in0.0 mm
04:54 AM 29.7°F-1.3°C 29.7°F-1.3°C 100% Calm Calm -- 30.27 in1025.1 mb 0.00 in0.0 mm 0.00 in0.0 mm 0.00 in0.0 mm
04:56 AM 29.7°F-1.3°C 29.7°F-1.3°C 100% Calm Calm -- 30.27 in1025.1 mb 0.00 in0.0 mm 0.00 in0.0 mm 0.00 in0.0 mm
04:58 AM 29.7°F-1.3°C 29.7°F-1.3°C 100% Calm Calm -- 30.27 in1025.1 mb 0.00 in0.0 mm 0.00 in0.0 mm 0.00 in0.0 mm
05:00 AM 29.7°F-1.3°C 29.7°F-1.3°C 100% Calm Calm -- 30.27 in1025.1 mb 0.00 in0.0 mm 0.00 in0.0 mm 0.00 in0.0 mm
05:02 AM 29.7°F-1.3°C 29.7°F-1.3°C 100% Calm Calm -- 30.27 in1025.1 mb 0.00 in0.0 mm 0.00 in0.0 mm 0.00 in0.0 mm
05:04 AM 29.7°F-1.3°C 29.7°F-1.3°C 100% Calm Calm -- 30.27 in1025.1 mb 0.00 in0.0 mm 0.00 in0.0 mm 0.00 in0.0 mm
05:06 AM 29.7°F-1.3°C 29.7°F-1.3°C 100% Calm Calm -- 30.27 in1025.1 mb 0.00 in0.0 mm 0.00 in0.0 mm 0.00 in0.0 mm
05:08 AM 29.7°F-1.3°C 29.7°F-1.3°C 100% Calm Calm -- 30.27 in1025.1 mb 0.00 in0.0 mm 0.00 in0.0 mm 0.00 in0.0 mm
05:10 AM 29.7°F-1.3°C 29.7°F-1.3°C 100% Calm Calm -- 30.27 in1025.1 mb 0.00 in0.0 mm 0.00 in0.0 mm 0.00 in0.0 mm
05:12 AM 29.7°F-1.3°C 29.7°F-1.3°C 100% Calm Calm -- 30.27 in1025.1 mb 0.00 in0.0 mm 0.00 in0.0 mm 0.00 in0.0 mm
05:14 AM 29.7°F-1.3°C 29.7°F-1.3°C 100% Calm Calm -- 30.27 in1025.1 mb 0.00 in0.0 mm 0.00 in0.0 mm 0.00 in0.0 mm
05:16 AM 29.7°F-1.3°C 29.7°F-1.3°C 100% Calm Calm -- 30.27 in1025.1 mb 0.00 in0.0 mm 0.00 in0.0 mm 0.00 in0.0 mm
05:18 AM 29.7°F-1.3°C 29.7°F-1.3°C 100% Calm Calm -- 30.27 in1025.1 mb 0.00 in0.0 mm 0.00 in0.0 mm 0.00 in0.0 mm
05:20 AM 29.7°F-1.3°C 29.7°F-1.3°C 100% Calm Calm -- 30.27 in1025.1 mb 0.00 in0.0 mm 0.00 in0.0 mm 0.00 in0.0 mm
05:22 AM 29.7°F-1.3°C 29.7°F-1.3°C 100% Calm Calm -- 30.27 in1025.1 mb 0.00 in0.0 mm 0.00 in0.0 mm 0.00 in0.0 mm
05:24 AM 29.7°F-1.3°C 29.7°F-1.3°C 100% Calm Calm -- 30.27 in1025.1 mb 0.00 in0.0 mm 0.00 in0.0 mm 0.00 in0.0 mm
05:26 AM 29.7°F-1.3°C 29.7°F-1.3°C 100% Calm Calm -- 30.27 in1025.1 mb 0.00 in0.0 mm 0.00 in0.0 mm 0.00 in0.0 mm
05:28 AM 29.7°F-1.3°C 29.7°F-1.3°C 100% Calm Calm -- 30.27 in1025.1 mb 0.00 in0.0 mm 0.00 in0.0 mm 0.00 in0.0 mm
05:30 AM 29.7°F-1.3°C 29.7°F-1.3°C 100% Calm Calm -- 30.27 in1025.1 mb 0.00 in0.0 mm 0.00 in0.0 mm 0.00 in0.0 mm
05:32 AM 29.7°F-1.3°C 29.7°F-1.3°C 100% Calm Calm -- 30.27 in1025.1 mb 0.00 in0.0 mm 0.00 in0.0 mm 0.00 in0.0 mm
05:34 AM 29.7°F-1.3°C 29.7°F-1.3°C 100% Calm Calm -- 30.27 in1025.1 mb 0.00 in0.0 mm 0.00 in0.0 mm 0.00 in0.0 mm
05:36 AM 29.7°F-1.3°C 29.7°F-1.3°C 100% Calm Calm -- 30.27 in1025.1 mb 0.00 in0.0 mm 0.00 in0.0 mm 0.00 in0.0 mm
05:38 AM 29.7°F-1.3°C 29.7°F-1.3°C 100% Calm Calm -- 30.26 in1024.7 mb 0.00 in0.0 mm 0.00 in0.0 mm 0.00 in0.0 mm
05:40 AM 29.7°F-1.3°C 29.7°F-1.3°C 100% Calm Calm -- 30.26 in1024.7 mb 0.00 in0.0 mm 0.00 in0.0 mm 0.00 in0.0 mm
05:42 AM 29.7°F-1.3°C 29.7°F-1.3°C 100% Calm Calm -- 30.26 in1024.7 mb 0.00 in0.0 mm 0.00 in0.0 mm 0.00 in0.0 mm
05:44 AM 29.7°F-1.3°C 29.7°F-1.3°C 100% Calm Calm -- 30.26 in1024.7 mb 0.00 in0.0 mm 0.00 in0.0 mm 0.00 in0.0 mm
05:46 AM 29.7°F-1.3°C 29.7°F-1.3°C 100% Calm Calm -- 30.26 in1024.7 mb 0.00 in0.0 mm 0.00 in0.0 mm 0.00 in0.0 mm
05:48 AM 29.7°F-1.3°C 29.7°F-1.3°C 100% Calm Calm -- 30.26 in1024.7 mb 0.00 in0.0 mm 0.00 in0.0 mm 0.00 in0.0 mm
05:50 AM 29.7°F-1.3°C 29.7°F-1.3°C 100% Calm Calm -- 30.26 in1024.7 mb 0.00 in0.0 mm 0.00 in0.0 mm 0.00 in0.0 mm
05:52 AM 29.7°F-1.3°C 29.7°F-1.3°C 100% Calm Calm -- 30.25 in1024.4 mb 0.00 in0.0 mm 0.00 in0.0 mm 0.00 in0.0 mm
05:54 AM 29.7°F-1.3°C 29.7°F-1.3°C 100% Calm Calm -- 30.25 in1024.4 mb 0.00 in0.0 mm 0.00 in0.0 mm 0.00 in0.0 mm
05:56 AM 29.7°F-1.3°C 29.7°F-1.3°C 100% Calm Calm -- 30.26 in1024.7 mb 0.00 in0.0 mm 0.00 in0.0 mm 0.00 in0.0 mm
05:58 AM 29.7°F-1.3°C 29.7°F-1.3°C 100% Calm Calm -- 30.26 in1024.7 mb 0.00 in0.0 mm 0.00 in0.0 mm 0.00 in0.0 mm
06:00 AM 29.7°F-1.3°C 29.7°F-1.3°C 100% Calm Calm -- 30.25 in1024.4 mb 0.00 in0.0 mm 0.00 in0.0 mm 0.00 in0.0 mm
06:02 AM 29.7°F-1.3°C 29.7°F-1.3°C 100% Calm Calm -- 30.25 in1024.4 mb 0.00 in0.0 mm 0.00 in0.0 mm 0.00 in0.0 mm
06:04 AM 29.7°F-1.3°C 29.7°F-1.3°C 100% Calm Calm -- 30.25 in1024.4 mb 0.00 in0.0 mm 0.00 in0.0 mm 0.00 in0.0 mm
06:06 AM 29.7°F-1.3°C 29.7°F-1.3°C 100% Calm Calm -- 30.25 in1024.4 mb 0.00 in0.0 mm 0.00 in0.0 mm 0.00 in0.0 mm
06:08 AM 29.7°F-1.3°C 29.7°F-1.3°C 100% Calm Calm -- 30.25 in1024.4 mb 0.00 in0.0 mm 0.00 in0.0 mm 0.00 in0.0 mm
06:10 AM 29.7°F-1.3°C 29.7°F-1.3°C 100% Calm Calm -- 30.25 in1024.4 mb 0.00 in0.0 mm 0.00 in0.0 mm 0.00 in0.0 mm
06:12 AM 29.7°F-1.3°C 29.7°F-1.3°C 100% Calm Calm -- 30.25 in1024.4 mb 0.00 in0.0 mm 0.00 in0.0 mm 0.00 in0.0 mm
06:14 AM 29.7°F-1.3°C 29.7°F-1.3°C 100% Calm Calm -- 30.25 in1024.4 mb 0.00 in0.0 mm 0.00 in0.0 mm 0.00 in0.0 mm
06:16 AM 29.7°F-1.3°C 29.7°F-1.3°C 100% Calm Calm -- 30.25 in1024.4 mb 0.00 in0.0 mm 0.00 in0.0 mm 0.00 in0.0 mm
06:18 AM 29.7°F-1.3°C 29.7°F-1.3°C 100% Calm Calm -- 30.25 in1024.4 mb 0.00 in0.0 mm 0.00 in0.0 mm 0.00 in0.0 mm
06:20 AM 29.7°F-1.3°C 29.7°F-1.3°C 100% Calm Calm -- 30.25 in1024.4 mb 0.00 in0.0 mm 0.00 in0.0 mm 0.00 in0.0 mm
06:22 AM 29.7°F-1.3°C 29.7°F-1.3°C 100% Calm Calm -- 30.25 in1024.4 mb 0.00 in0.0 mm 0.00 in0.0 mm 0.00 in0.0 mm
06:24 AM 29.7°F-1.3°C 29.7°F-1.3°C 100% Calm Calm -- 30.25 in1024.4 mb 0.00 in0.0 mm 0.00 in0.0 mm 0.00 in0.0 mm
06:26 AM 29.7°F-1.3°C 29.7°F-1.3°C 100% Calm Calm -- 30.25 in1024.4 mb 0.00 in0.0 mm 0.00 in0.0 mm 0.00 in0.0 mm
06:28 AM 29.7°F-1.3°C 29.7°F-1.3°C 100% Calm Calm -- 30.25 in1024.4 mb 0.00 in0.0 mm 0.00 in0.0 mm 0.00 in0.0 mm
06:30 AM 29.7°F-1.3°C 29.7°F-1.3°C 100% Calm Calm -- 30.24 in1024.0 mb 0.00 in0.0 mm 0.00 in0.0 mm 0.00 in0.0 mm
06:32 AM 29.7°F-1.3°C 29.7°F-1.3°C 100% Calm Calm -- 30.24 in1024.0 mb 0.00 in0.0 mm 0.00 in0.0 mm 0.00 in0.0 mm
06:34 AM 29.7°F-1.3°C 29.7°F-1.3°C 100% Calm Calm -- 30.24 in1024.0 mb 0.00 in0.0 mm 0.00 in0.0 mm 0.00 in0.0 mm
06:36 AM 29.7°F-1.3°C 29.7°F-1.3°C 100% Calm Calm -- 30.24 in1024.0 mb 0.00 in0.0 mm 0.00 in0.0 mm 0.00 in0.0 mm
06:38 AM 29.7°F-1.3°C 29.7°F-1.3°C 100% Calm Calm -- 30.24 in1024.0 mb 0.00 in0.0 mm 0.00 in0.0 mm 0.00 in0.0 mm
06:40 AM 29.7°F-1.3°C 29.7°F-1.3°C 100% Calm Calm -- 30.24 in1024.0 mb 0.00 in0.0 mm 0.00 in0.0 mm 0.00 in0.0 mm
06:42 AM 29.7°F-1.3°C 29.7°F-1.3°C 100% Calm Calm -- 30.24 in1024.0 mb 0.00 in0.0 mm 0.00 in0.0 mm 0.00 in0.0 mm
06:44 AM 29.7°F-1.3°C 29.7°F-1.3°C 100% Calm Calm -- 30.25 in1024.4 mb 0.00 in0.0 mm 0.00 in0.0 mm 0.00 in0.0 mm
06:46 AM 29.7°F-1.3°C 29.7°F-1.3°C 100% Calm Calm -- 30.24 in1024.0 mb 0.00 in0.0 mm 0.00 in0.0 mm 0.00 in0.0 mm
06:48 AM 29.7°F-1.3°C 29.7°F-1.3°C 100% Calm Calm -- 30.24 in1024.0 mb 0.00 in0.0 mm 0.00 in0.0 mm 0.00 in0.0 mm
06:50 AM 29.7°F-1.3°C 29.7°F-1.3°C 100% Calm Calm -- 30.24 in1024.0 mb 0.00 in0.0 mm 0.00 in0.0 mm 0.00 in0.0 mm
06:52 AM 29.7°F-1.3°C 29.7°F-1.3°C 100% Calm Calm -- 30.24 in1024.0 mb 0.00 in0.0 mm 0.00 in0.0 mm 0.00 in0.0 mm
06:54 AM 29.7°F-1.3°C 29.7°F-1.3°C 100% Calm Calm -- 30.24 in1024.0 mb 0.00 in0.0 mm 0.00 in0.0 mm 0.00 in0.0 mm
06:56 AM 29.7°F-1.3°C 29.7°F-1.3°C 100% Calm Calm -- 30.25 in1024.4 mb 0.00 in0.0 mm 0.00 in0.0 mm 0.00 in0.0 mm
06:58 AM 29.7°F-1.3°C 29.7°F-1.3°C 100% Calm Calm -- 30.25 in1024.4 mb 0.00 in0.0 mm 0.00 in0.0 mm 0.00 in0.0 mm
07:00 AM 29.7°F-1.3°C 29.7°F-1.3°C 100% Calm Calm -- 30.25 in1024.4 mb 0.00 in0.0 mm 0.00 in0.0 mm 0.00 in0.0 mm
07:02 AM 29.7°F-1.3°C 29.7°F-1.3°C 100% Calm Calm -- 30.25 in1024.4 mb 0.00 in0.0 mm 0.00 in0.0 mm 0.00 in0.0 mm
07:04 AM 29.7°F-1.3°C 29.7°F-1.3°C 100% Calm Calm -- 30.25 in1024.4 mb 0.00 in0.0 mm 0.00 in0.0 mm 0.00 in0.0 mm
07:06 AM 29.7°F-1.3°C 29.7°F-1.3°C 100% Calm Calm -- 30.25 in1024.4 mb 0.00 in0.0 mm 0.00 in0.0 mm 0.00 in0.0 mm
07:08 AM 29.7°F-1.3°C 29.7°F-1.3°C 100% Calm Calm -- 30.25 in1024.4 mb 0.00 in0.0 mm 0.00 in0.0 mm 0.00 in0.0 mm
07:10 AM 29.7°F-1.3°C 29.7°F-1.3°C 100% Calm Calm -- 30.25 in1024.4 mb 0.00 in0.0 mm 0.00 in0.0 mm 0.00 in0.0 mm
07:12 AM 29.7°F-1.3°C 29.7°F-1.3°C 100% Calm Calm -- 30.25 in1024.4 mb 0.00 in0.0 mm 0.00 in0.0 mm 0.00 in0.0 mm
07:14 AM 29.7°F-1.3°C 29.7°F-1.3°C 100% Calm Calm -- 30.25 in1024.4 mb 0.00 in0.0 mm 0.00 in0.0 mm 0.00 in0.0 mm
07:16 AM 29.7°F-1.3°C 29.7°F-1.3°C 100% Calm Calm -- 30.25 in1024.4 mb 0.00 in0.0 mm 0.00 in0.0 mm 0.00 in0.0 mm
07:18 AM 29.7°F-1.3°C 29.7°F-1.3°C 100% Calm Calm -- 30.25 in1024.4 mb 0.00 in0.0 mm 0.00 in0.0 mm 0.00 in0.0 mm
07:20 AM 29.7°F-1.3°C 29.7°F-1.3°C 100% Calm Calm -- 30.25 in1024.4 mb 0.00 in0.0 mm 0.00 in0.0 mm 0.00 in0.0 mm
07:22 AM 29.7°F-1.3°C 29.7°F-1.3°C 100% Calm Calm -- 30.25 in1024.4 mb 0.00 in0.0 mm 0.00 in0.0 mm 0.00 in0.0 mm
07:24 AM 29.7°F-1.3°C 29.7°F-1.3°C 100% Calm Calm -- 30.25 in1024.4 mb 0.00 in0.0 mm 0.00 in0.0 mm 0.00 in0.0 mm
07:26 AM 29.7°F-1.3°C 29.7°F-1.3°C 100% Calm Calm -- 30.25 in1024.4 mb 0.00 in0.0 mm 0.00 in0.0 mm 0.00 in0.0 mm
07:28 AM 29.7°F-1.3°C 29.7°F-1.3°C 100% Calm Calm -- 30.25 in1024.4 mb 0.00 in0.0 mm 0.00 in0.0 mm 0.00 in0.0 mm
07:30 AM 29.7°F-1.3°C 29.7°F-1.3°C 100% Calm Calm -- 30.25 in1024.4 mb 0.00 in0.0 mm 0.00 in0.0 mm 0.00 in0.0 mm
07:32 AM 29.7°F-1.3°C 29.7°F-1.3°C 100% Calm Calm -- 30.25 in1024.4 mb 0.00 in0.0 mm 0.00 in0.0 mm 0.00 in0.0 mm
07:34 AM 29.7°F-1.3°C 29.7°F-1.3°C 100% Calm Calm -- 30.25 in1024.4 mb 0.00 in0.0 mm 0.00 in0.0 mm 0.00 in0.0 mm
07:36 AM 29.7°F-1.3°C 29.7°F-1.3°C 100% Calm Calm -- 30.26 in1024.7 mb 0.00 in0.0 mm 0.00 in0.0 mm 0.00 in0.0 mm
07:38 AM 29.7°F-1.3°C 29.7°F-1.3°C 100% Calm Calm -- 30.25 in1024.4 mb 0.00 in0.0 mm 0.00 in0.0 mm 0.00 in0.0 mm
07:40 AM 29.7°F-1.3°C 29.7°F-1.3°C 100% Calm Calm -- 30.26 in1024.7 mb 0.00 in0.0 mm 0.00 in0.0 mm 0.00 in0.0 mm
07:42 AM 29.7°F-1.3°C 29.7°F-1.3°C 100% Calm Calm -- 30.25 in1024.4 mb 0.00 in0.0 mm 0.00 in0.0 mm 0.00 in0.0 mm
07:44 AM 29.7°F-1.3°C 29.7°F-1.3°C 100% Calm Calm -- 30.25 in1024.4 mb 0.00 in0.0 mm 0.00 in0.0 mm 0.00 in0.0 mm
07:46 AM 29.7°F-1.3°C 29.7°F-1.3°C 100% Calm Calm -- 30.25 in1024.4 mb 0.00 in0.0 mm 0.00 in0.0 mm 0.00 in0.0 mm
07:48 AM 29.7°F-1.3°C 29.7°F-1.3°C 100% Calm Calm -- 30.25 in1024.4 mb 0.00 in0.0 mm 0.00 in0.0 mm 0.00 in0.0 mm
07:50 AM 29.7°F-1.3°C 29.7°F-1.3°C 100% Calm Calm -- 30.25 in1024.4 mb 0.00 in0.0 mm 0.00 in0.0 mm 0.00 in0.0 mm
07:52 AM 29.7°F-1.3°C 29.7°F-1.3°C 100% Calm Calm -- 30.25 in1024.4 mb 0.00 in0.0 mm 0.00 in0.0 mm 0.00 in0.0 mm
07:54 AM 29.7°F-1.3°C 29.7°F-1.3°C 100% Calm Calm -- 30.25 in1024.4 mb 0.00 in0.0 mm 0.00 in0.0 mm 0.00 in0.0 mm
07:56 AM 29.7°F-1.3°C 29.7°F-1.3°C 100% Calm Calm -- 30.25 in1024.4 mb 0.00 in0.0 mm 0.00 in0.0 mm 0.00 in0.0 mm
07:58 AM 29.7°F-1.3°C 29.7°F-1.3°C 100% Calm Calm -- 30.25 in1024.4 mb 0.00 in0.0 mm 0.00 in0.0 mm 0.00 in0.0 mm
08:00 AM 29.7°F-1.3°C 29.7°F-1.3°C 100% Calm Calm -- 30.25 in1024.4 mb 0.00 in0.0 mm 0.00 in0.0 mm 0.00 in0.0 mm
08:02 AM 29.7°F-1.3°C 29.7°F-1.3°C 100% Calm Calm -- 30.25 in1024.4 mb 0.00 in0.0 mm 0.00 in0.0 mm 0.00 in0.0 mm
08:04 AM 29.7°F-1.3°C 29.7°F-1.3°C 100% Calm Calm -- 30.25 in1024.4 mb 0.00 in0.0 mm 0.00 in0.0 mm 0.00 in0.0 mm
08:06 AM 29.7°F-1.3°C 29.7°F-1.3°C 100% Calm Calm -- 30.25 in1024.4 mb 0.00 in0.0 mm 0.00 in0.0 mm 0.00 in0.0 mm
08:08 AM 29.7°F-1.3°C 29.7°F-1.3°C 100% Calm Calm -- 30.25 in1024.4 mb 0.00 in0.0 mm 0.00 in0.0 mm 0.00 in0.0 mm
08:10 AM 29.7°F-1.3°C 29.7°F-1.3°C 100% Calm Calm -- 30.25 in1024.4 mb 0.00 in0.0 mm 0.00 in0.0 mm 0.00 in0.0 mm
08:12 AM 29.7°F-1.3°C 29.7°F-1.3°C 100% Calm Calm -- 30.25 in1024.4 mb 0.00 in0.0 mm 0.00 in0.0 mm 0.00 in0.0 mm
08:14 AM 29.7°F-1.3°C 29.7°F-1.3°C 100% Calm Calm -- 30.25 in1024.4 mb 0.00 in0.0 mm 0.00 in0.0 mm 0.00 in0.0 mm
08:16 AM 29.7°F-1.3°C 29.7°F-1.3°C 100% Calm Calm -- 30.25 in1024.4 mb 0.00 in0.0 mm 0.00 in0.0 mm 0.00 in0.0 mm
08:18 AM 29.7°F-1.3°C 29.7°F-1.3°C 100% Calm Calm -- 30.25 in1024.4 mb 0.00 in0.0 mm 0.00 in0.0 mm 0.00 in0.0 mm
08:20 AM 29.7°F-1.3°C 29.7°F-1.3°C 100% Calm Calm -- 30.25 in1024.4 mb 0.00 in0.0 mm 0.00 in0.0 mm 0.00 in0.0 mm
08:22 AM 29.7°F-1.3°C 29.7°F-1.3°C 100% Calm Calm -- 30.25 in1024.4 mb 0.00 in0.0 mm 0.00 in0.0 mm 0.00 in0.0 mm
08:24 AM 29.7°F-1.3°C 29.7°F-1.3°C 100% Calm Calm -- 30.26 in1024.7 mb 0.00 in0.0 mm 0.00 in0.0 mm 0.00 in0.0 mm
08:26 AM 29.7°F-1.3°C 29.7°F-1.3°C 100% Calm Calm -- 30.26 in1024.7 mb 0.00 in0.0 mm 0.00 in0.0 mm 0.00 in0.0 mm
08:28 AM 29.7°F-1.3°C 29.7°F-1.3°C 100% Calm Calm -- 30.26 in1024.7 mb 0.00 in0.0 mm 0.00 in0.0 mm 0.00 in0.0 mm
08:30 AM 29.7°F-1.3°C 29.7°F-1.3°C 100% Calm Calm -- 30.27 in1025.1 mb 0.00 in0.0 mm 0.00 in0.0 mm 0.00 in0.0 mm
08:32 AM 29.7°F-1.3°C 29.7°F-1.3°C 100% Calm Calm -- 30.27 in1025.1 mb 0.00 in0.0 mm 0.00 in0.0 mm 0.00 in0.0 mm
08:34 AM 29.7°F-1.3°C 29.7°F-1.3°C 100% Calm Calm -- 30.27 in1025.1 mb 0.00 in0.0 mm 0.00 in0.0 mm 0.00 in0.0 mm
08:36 AM 29.7°F-1.3°C 29.7°F-1.3°C 100% Calm Calm -- 30.27 in1025.1 mb 0.00 in0.0 mm 0.00 in0.0 mm 0.00 in0.0 mm
08:38 AM 29.7°F-1.3°C 29.7°F-1.3°C 100% Calm Calm -- 30.27 in1025.1 mb 0.00 in0.0 mm 0.00 in0.0 mm 0.00 in0.0 mm
08:40 AM 29.7°F-1.3°C 29.7°F-1.3°C 100% Calm Calm -- 30.27 in1025.1 mb 0.00 in0.0 mm 0.00 in0.0 mm 0.00 in0.0 mm
08:42 AM 29.7°F-1.3°C 29.7°F-1.3°C 100% Calm Calm -- 30.27 in1025.1 mb 0.00 in0.0 mm 0.00 in0.0 mm 0.00 in0.0 mm
08:44 AM 29.7°F-1.3°C 29.7°F-1.3°C 100% Calm Calm -- 30.27 in1025.1 mb 0.00 in0.0 mm 0.00 in0.0 mm 0.00 in0.0 mm
08:46 AM 29.7°F-1.3°C 29.7°F-1.3°C 100% Calm Calm -- 30.27 in1025.1 mb 0.00 in0.0 mm 0.00 in0.0 mm 0.00 in0.0 mm
08:48 AM 29.7°F-1.3°C 29.7°F-1.3°C 100% Calm Calm -- 30.26 in1024.7 mb 0.00 in0.0 mm 0.00 in0.0 mm 0.00 in0.0 mm
08:50 AM 29.7°F-1.3°C 29.7°F-1.3°C 100% Calm Calm -- 30.26 in1024.7 mb 0.00 in0.0 mm 0.00 in0.0 mm 0.00 in0.0 mm
08:52 AM 29.7°F-1.3°C 29.7°F-1.3°C 100% Calm Calm -- 30.26 in1024.7 mb 0.00 in0.0 mm 0.00 in0.0 mm 0.00 in0.0 mm
08:54 AM 29.7°F-1.3°C 29.7°F-1.3°C 100% Calm Calm -- 30.26 in1024.7 mb 0.00 in0.0 mm 0.00 in0.0 mm 0.00 in0.0 mm
08:56 AM 29.7°F-1.3°C 29.7°F-1.3°C 100% Calm Calm -- 30.26 in1024.7 mb 0.00 in0.0 mm 0.00 in0.0 mm 0.00 in0.0 mm
08:58 AM 29.7°F-1.3°C 29.7°F-1.3°C 100% Calm Calm -- 30.26 in1024.7 mb 0.00 in0.0 mm 0.00 in0.0 mm 0.00 in0.0 mm
09:00 AM 29.7°F-1.3°C 29.7°F-1.3°C 100% Calm Calm -- 30.26 in1024.7 mb 0.00 in0.0 mm 0.00 in0.0 mm 0.00 in0.0 mm
09:02 AM 29.7°F-1.3°C 29.7°F-1.3°C 100% Calm Calm -- 30.26 in1024.7 mb 0.00 in0.0 mm 0.00 in0.0 mm 0.00 in0.0 mm
09:04 AM 29.7°F-1.3°C 29.7°F-1.3°C 100% Calm Calm -- 30.25 in1024.4 mb 0.00 in0.0 mm 0.00 in0.0 mm 0.00 in0.0 mm
09:06 AM 29.7°F-1.3°C 29.7°F-1.3°C 100% Calm Calm -- 30.25 in1024.4 mb 0.00 in0.0 mm 0.00 in0.0 mm 0.00 in0.0 mm
09:08 AM 29.7°F-1.3°C 29.7°F-1.3°C 100% Calm Calm -- 30.25 in1024.4 mb 0.00 in0.0 mm 0.00 in0.0 mm 0.00 in0.0 mm
09:10 AM 29.7°F-1.3°C 29.7°F-1.3°C 100% Calm Calm -- 30.25 in1024.4 mb 0.00 in0.0 mm 0.00 in0.0 mm 0.00 in0.0 mm
09:12 AM 29.7°F-1.3°C 29.7°F-1.3°C 100% Calm Calm -- 30.25 in1024.4 mb 0.00 in0.0 mm 0.00 in0.0 mm 0.00 in0.0 mm
09:14 AM 29.7°F-1.3°C 29.7°F-1.3°C 100% Calm Calm -- 30.25 in1024.4 mb 0.00 in0.0 mm 0.00 in0.0 mm 0.00 in0.0 mm
09:16 AM 29.7°F-1.3°C 29.7°F-1.3°C 100% Calm Calm -- 30.25 in1024.4 mb 0.00 in0.0 mm 0.00 in0.0 mm 0.00 in0.0 mm
09:18 AM 29.7°F-1.3°C 29.7°F-1.3°C 100% Calm Calm -- 30.24 in1024.0 mb 0.00 in0.0 mm 0.00 in0.0 mm 0.00 in0.0 mm
09:20 AM 29.7°F-1.3°C 29.7°F-1.3°C 100% Calm Calm -- 30.24 in1024.0 mb 0.00 in0.0 mm 0.00 in0.0 mm 0.00 in0.0 mm
09:22 AM 29.7°F-1.3°C 29.7°F-1.3°C 100% Calm Calm -- 30.24 in1024.0 mb 0.00 in0.0 mm 0.00 in0.0 mm 0.00 in0.0 mm
09:24 AM 29.7°F-1.3°C 29.7°F-1.3°C 100% Calm Calm -- 30.24 in1024.0 mb 0.00 in0.0 mm 0.00 in0.0 mm 0.00 in0.0 mm
09:26 AM 29.7°F-1.3°C 29.7°F-1.3°C 100% Calm Calm -- 30.24 in1024.0 mb 0.00 in0.0 mm 0.00 in0.0 mm 0.00 in0.0 mm
09:28 AM 29.7°F-1.3°C 29.7°F-1.3°C 100% Calm Calm -- 30.24 in1024.0 mb 0.00 in0.0 mm 0.00 in0.0 mm 0.00 in0.0 mm
09:30 AM 29.7°F-1.3°C 29.7°F-1.3°C 100% Calm Calm -- 30.24 in1024.0 mb 0.00 in0.0 mm 0.00 in0.0 mm 0.00 in0.0 mm
09:32 AM 29.7°F-1.3°C 29.7°F-1.3°C 100% Calm Calm -- 30.24 in1024.0 mb 0.00 in0.0 mm 0.00 in0.0 mm 0.00 in0.0 mm
09:34 AM 29.7°F-1.3°C 29.7°F-1.3°C 100% Calm Calm -- 30.24 in1024.0 mb 0.00 in0.0 mm 0.00 in0.0 mm 0.00 in0.0 mm
09:36 AM 29.7°F-1.3°C 29.7°F-1.3°C 100% Calm Calm -- 30.23 in1023.7 mb 0.00 in0.0 mm 0.00 in0.0 mm 0.00 in0.0 mm
09:38 AM 29.7°F-1.3°C 29.7°F-1.3°C 100% Calm Calm -- 30.23 in1023.7 mb 0.00 in0.0 mm 0.00 in0.0 mm 0.00 in0.0 mm
09:40 AM 29.7°F-1.3°C 29.7°F-1.3°C 100% Calm Calm -- 30.23 in1023.7 mb 0.00 in0.0 mm 0.00 in0.0 mm 0.00 in0.0 mm
09:42 AM 29.7°F-1.3°C 29.7°F-1.3°C 100% Calm Calm -- 30.23 in1023.7 mb 0.00 in0.0 mm 0.00 in0.0 mm 0.00 in0.0 mm
09:44 AM 29.7°F-1.3°C 29.7°F-1.3°C 100% Calm Calm -- 30.23 in1023.7 mb 0.00 in0.0 mm 0.00 in0.0 mm 0.00 in0.0 mm
09:46 AM 29.7°F-1.3°C 29.7°F-1.3°C 100% Calm Calm -- 30.23 in1023.7 mb 0.00 in0.0 mm 0.00 in0.0 mm 0.00 in0.0 mm
09:48 AM 29.7°F-1.3°C 29.7°F-1.3°C 100% Calm Calm -- 30.23 in1023.7 mb 0.00 in0.0 mm 0.00 in0.0 mm 0.00 in0.0 mm
09:50 AM 29.7°F-1.3°C 29.7°F-1.3°C 100% Calm Calm -- 30.23 in1023.7 mb 0.00 in0.0 mm 0.00 in0.0 mm 0.00 in0.0 mm
09:52 AM 29.7°F-1.3°C 29.7°F-1.3°C 100% Calm Calm -- 30.23 in1023.7 mb 0.00 in0.0 mm 0.00 in0.0 mm 0.00 in0.0 mm
09:54 AM 29.7°F-1.3°C 29.7°F-1.3°C 100% Calm Calm -- 30.23 in1023.7 mb 0.00 in0.0 mm 0.00 in0.0 mm 0.00 in0.0 mm
09:56 AM 33.0°F0.6°C 32.5°F0.3°C 98% Calm Calm -- 30.23 in1023.7 mb 0.00 in0.0 mm 0.00 in0.0 mm 0.00 in0.0 mm
09:58 AM 33.0°F0.6°C 32.5°F0.3°C 98% 1.0 mph N1.6 kmh N 1.0 mph1.6 kmh 30.24 in1024.0 mb 0.00 in0.0 mm 0.00 in0.0 mm 0.00 in0.0 mm
10:00 AM 32.9°F0.5°C 32.4°F0.2°C 98% 1.0 mph N1.6 kmh N 1.0 mph1.6 kmh 30.25 in1024.4 mb 0.00 in0.0 mm 0.00 in0.0 mm 0.00 in0.0 mm
10:02 AM 33.0°F0.6°C 32.5°F0.3°C 98% 1.0 mph N1.6 kmh N 1.0 mph1.6 kmh 30.25 in1024.4 mb 0.00 in0.0 mm 0.00 in0.0 mm 0.00 in0.0 mm
10:04 AM 33.0°F0.6°C 32.5°F0.3°C 98% Calm Calm 1.0 mph1.6 kmh 30.26 in1024.7 mb 0.00 in0.0 mm 0.00 in0.0 mm 0.00 in0.0 mm
10:06 AM 33.1°F0.6°C 32.6°F0.3°C 98% Calm Calm 1.0 mph1.6 kmh 30.26 in1024.7 mb 0.00 in0.0 mm 0.00 in0.0 mm 0.00 in0.0 mm
10:08 AM 33.2°F0.7°C 32.7°F0.4°C 98% Calm Calm -- 30.26 in1024.7 mb 0.00 in0.0 mm 0.00 in0.0 mm 0.00 in0.0 mm
10:10 AM 33.3°F0.7°C 32.8°F0.4°C 98% Calm Calm -- 30.27 in1025.1 mb 0.00 in0.0 mm 0.00 in0.0 mm 0.00 in0.0 mm
10:12 AM 33.4°F0.8°C 32.9°F0.5°C 98% Calm Calm -- 30.27 in1025.1 mb 0.00 in0.0 mm 0.00 in0.0 mm 0.00 in0.0 mm
10:14 AM 33.5°F0.8°C 33.0°F0.6°C 98% Calm Calm -- 30.28 in1025.4 mb 0.00 in0.0 mm 0.00 in0.0 mm 0.00 in0.0 mm
10:16 AM 33.7°F0.9°C 33.2°F0.7°C 98% Calm Calm -- 30.28 in1025.4 mb 0.00 in0.0 mm 0.00 in0.0 mm 0.00 in0.0 mm
10:18 AM 33.9°F1.1°C 33.4°F0.8°C 98% Calm Calm -- 30.28 in1025.4 mb 0.00 in0.0 mm 0.00 in0.0 mm 0.00 in0.0 mm
10:20 AM 34.1°F1.2°C 33.6°F0.9°C 98% Calm Calm -- 30.28 in1025.4 mb 0.00 in0.0 mm 0.00 in0.0 mm 0.00 in0.0 mm
10:22 AM 34.2°F1.2°C 33.7°F0.9°C 98% Calm Calm -- 30.28 in1025.4 mb 0.00 in0.0 mm 0.00 in0.0 mm 0.00 in0.0 mm
10:24 AM 34.3°F1.3°C 33.8°F1.0°C 98% Calm Calm -- 30.28 in1025.4 mb 0.00 in0.0 mm 0.00 in0.0 mm 0.00 in0.0 mm
10:26 AM 34.4°F1.3°C 33.9°F1.1°C 98% Calm Calm -- 30.28 in1025.4 mb 0.00 in0.0 mm 0.00 in0.0 mm 0.00 in0.0 mm
10:28 AM 34.7°F1.5°C 34.2°F1.2°C 98% Calm Calm -- 30.28 in1025.4 mb 0.00 in0.0 mm 0.00 in0.0 mm 0.00 in0.0 mm
10:30 AM 34.8°F1.6°C 34.3°F1.3°C 98% Calm Calm -- 30.28 in1025.4 mb 0.00 in0.0 mm 0.00 in0.0 mm 0.00 in0.0 mm
10:32 AM 35.0°F1.7°C 34.5°F1.4°C 98% Calm Calm -- 30.28 in1025.4 mb 0.00 in0.0 mm 0.00 in0.0 mm 0.00 in0.0 mm
10:34 AM 35.2°F1.8°C 34.7°F1.5°C 98% Calm Calm -- 30.28 in1025.4 mb 0.00 in0.0 mm 0.00 in0.0 mm 0.00 in0.0 mm
10:36 AM 35.3°F1.8°C 34.8°F1.6°C 98% Calm Calm -- 30.28 in1025.4 mb 0.00 in0.0 mm 0.00 in0.0 mm 0.00 in0.0 mm
10:38 AM 35.4°F1.9°C 34.9°F1.6°C 98% Calm Calm -- 30.28 in1025.4 mb 0.00 in0.0 mm 0.00 in0.0 mm 0.00 in0.0 mm
10:40 AM 35.6°F2.0°C 35.1°F1.7°C 98% Calm Calm -- 30.28 in1025.4 mb 0.00 in0.0 mm 0.00 in0.0 mm 0.00 in0.0 mm
10:42 AM 35.8°F2.1°C 35.3°F1.8°C 98% Calm Calm -- 30.28 in1025.4 mb 0.00 in0.0 mm 0.00 in0.0 mm 0.00 in0.0 mm
10:44 AM 35.9°F2.2°C 35.4°F1.9°C 98% Calm Calm -- 30.28 in1025.4 mb 0.00 in0.0 mm 0.00 in0.0 mm 0.00 in0.0 mm
10:46 AM 36.0°F2.2°C 35.5°F1.9°C 98% Calm Calm -- 30.27 in1025.1 mb 0.00 in0.0 mm 0.00 in0.0 mm 0.00 in0.0 mm
10:48 AM 36.1°F2.3°C 35.6°F2.0°C 98% Calm Calm -- 30.27 in1025.1 mb 0.00 in0.0 mm 0.00 in0.0 mm 0.00 in0.0 mm
10:50 AM 36.4°F2.4°C 35.9°F2.2°C 98% 2.0 mph SSE3.2 kmh SSE 2.0 mph3.2 kmh 30.27 in1025.1 mb 0.00 in0.0 mm 0.00 in0.0 mm 0.00 in0.0 mm
10:52 AM 36.6°F2.6°C 36.1°F2.3°C 98% 2.0 mph S3.2 kmh S 3.0 mph4.8 kmh 30.27 in1025.1 mb 0.00 in0.0 mm 0.00 in0.0 mm 0.00 in0.0 mm
10:54 AM 36.9°F2.7°C 36.4°F2.4°C 98% 1.0 mph SSE1.6 kmh SSE 2.0 mph3.2 kmh 30.27 in1025.1 mb 0.00 in0.0 mm 0.00 in0.0 mm 0.00 in0.0 mm
10:56 AM 37.2°F2.9°C 36.7°F2.6°C 98% 3.0 mph SSE4.8 kmh SSE 4.0 mph6.4 kmh 30.27 in1025.1 mb 0.00 in0.0 mm 0.00 in0.0 mm 0.00 in0.0 mm
10:58 AM 37.5°F3.1°C 37.0°F2.8°C 98% 3.0 mph SE4.8 kmh SE 3.0 mph4.8 kmh 30.26 in1024.7 mb 0.00 in0.0 mm 0.00 in0.0 mm 0.00 in0.0 mm
11:00 AM 37.8°F3.2°C 37.3°F2.9°C 98% 2.0 mph E3.2 kmh E 4.0 mph6.4 kmh 30.27 in1025.1 mb 0.00 in0.0 mm 0.00 in0.0 mm 0.00 in0.0 mm
11:02 AM 38.0°F3.3°C 37.5°F3.1°C 98% Calm Calm 4.0 mph6.4 kmh 30.27 in1025.1 mb 0.00 in0.0 mm 0.00 in0.0 mm 0.00 in0.0 mm
11:04 AM 38.4°F3.6°C 37.9°F3.3°C 98% Calm Calm 2.0 mph3.2 kmh 30.27 in1025.1 mb 0.00 in0.0 mm 0.00 in0.0 mm 0.00 in0.0 mm
11:06 AM 38.7°F3.7°C 38.2°F3.4°C 98% Calm Calm 2.0 mph3.2 kmh 30.28 in1025.4 mb 0.00 in0.0 mm 0.00 in0.0 mm 0.00 in0.0 mm
11:08 AM 39.0°F3.9°C 38.5°F3.6°C 98% 1.0 mph SE1.6 kmh SE 1.0 mph1.6 kmh 30.28 in1025.4 mb 0.00 in0.0 mm 0.00 in0.0 mm 0.00 in0.0 mm
11:10 AM 39.3°F4.1°C 38.5°F3.6°C 97% 1.0 mph SSE1.6 kmh SSE 3.0 mph4.8 kmh 30.28 in1025.4 mb 0.00 in0.0 mm 0.00 in0.0 mm 0.00 in0.0 mm
11:12 AM 39.4°F4.1°C 38.4°F3.6°C 96% 1.0 mph E1.6 kmh E 4.0 mph6.4 kmh 30.28 in1025.4 mb 0.00 in0.0 mm 0.00 in0.0 mm 0.00 in0.0 mm
11:14 AM 39.6°F4.2°C 38.3°F3.5°C 95% 1.0 mph E1.6 kmh E 4.0 mph6.4 kmh 30.28 in1025.4 mb 0.00 in0.0 mm 0.00 in0.0 mm 0.00 in0.0 mm
11:16 AM 40.0°F4.4°C 38.1°F3.4°C 93% 2.0 mph E3.2 kmh E 4.0 mph6.4 kmh 30.28 in1025.4 mb 0.00 in0.0 mm 0.00 in0.0 mm 0.00 in0.0 mm
11:18 AM 40.3°F4.6°C 38.2°F3.4°C 92% 3.0 mph NE4.8 kmh NE 5.0 mph8.0 kmh 30.28 in1025.4 mb 0.00 in0.0 mm 0.00 in0.0 mm 0.00 in0.0 mm
11:20 AM 40.6°F4.8°C 38.2°F3.4°C 91% 1.0 mph NE1.6 kmh NE 5.0 mph8.0 kmh 30.28 in1025.4 mb 0.00 in0.0 mm 0.00 in0.0 mm 0.00 in0.0 mm
11:22 AM 41.0°F5.0°C 38.3°F3.5°C 90% 4.0 mph E6.4 kmh E 5.0 mph8.0 kmh 30.28 in1025.4 mb 0.00 in0.0 mm 0.00 in0.0 mm 0.00 in0.0 mm
11:24 AM 41.2°F5.1°C 37.9°F3.3°C 88% 4.0 mph E6.4 kmh E 6.0 mph9.7 kmh 30.28 in1025.4 mb 0.00 in0.0 mm 0.00 in0.0 mm 0.00 in0.0 mm
11:26 AM 41.5°F5.3°C 38.2°F3.4°C 88% Calm Calm 6.0 mph9.7 kmh 30.28 in1025.4 mb 0.00 in0.0 mm 0.00 in0.0 mm 0.00 in0.0 mm
11:28 AM 42.1°F5.6°C 39.1°F3.9°C 89% 2.0 mph S3.2 kmh S 3.0 mph4.8 kmh 30.28 in1025.4 mb 0.00 in0.0 mm 0.00 in0.0 mm 0.00 in0.0 mm
11:30 AM 42.7°F5.9°C 39.1°F3.9°C 87% 3.0 mph E4.8 kmh E 5.0 mph8.0 kmh 30.27 in1025.1 mb 0.00 in0.0 mm 0.00 in0.0 mm 0.00 in0.0 mm
11:32 AM 43.0°F6.1°C 39.1°F3.9°C 86% 2.0 mph ESE3.2 kmh ESE 5.0 mph8.0 kmh 30.27 in1025.1 mb 0.00 in0.0 mm 0.00 in0.0 mm 0.00 in0.0 mm
11:34 AM 43.3°F6.3°C 39.1°F3.9°C 85% 2.0 mph S3.2 kmh S 3.0 mph4.8 kmh 30.27 in1025.1 mb 0.00 in0.0 mm 0.00 in0.0 mm 0.00 in0.0 mm
11:36 AM 43.4°F6.3°C 38.9°F3.8°C 84% 4.0 mph SSE6.4 kmh SSE 5.0 mph8.0 kmh 30.28 in1025.4 mb 0.00 in0.0 mm 0.00 in0.0 mm 0.00 in0.0 mm
11:38 AM 43.4°F6.3°C 38.6°F3.7°C 83% 1.0 mph ESE1.6 kmh ESE 3.0 mph4.8 kmh 30.28 in1025.4 mb 0.00 in0.0 mm 0.00 in0.0 mm 0.00 in0.0 mm
11:40 AM 43.4°F6.3°C 38.3°F3.5°C 82% 2.0 mph E3.2 kmh E 4.0 mph6.4 kmh 30.27 in1025.1 mb 0.00 in0.0 mm 0.00 in0.0 mm 0.00 in0.0 mm
11:42 AM 43.3°F6.3°C 38.2°F3.4°C 82% 1.0 mph SW1.6 kmh SW 4.0 mph6.4 kmh 30.27 in1025.1 mb 0.00 in0.0 mm 0.00 in0.0 mm 0.00 in0.0 mm
11:44 AM 43.4°F6.3°C 38.3°F3.5°C 82% Calm Calm 1.0 mph1.6 kmh 30.27 in1025.1 mb 0.00 in0.0 mm 0.00 in0.0 mm 0.00 in0.0 mm
11:46 AM 43.5°F6.4°C 38.7°F3.7°C 83% 2.0 mph E3.2 kmh E 2.0 mph3.2 kmh 30.28 in1025.4 mb 0.00 in0.0 mm 0.00 in0.0 mm 0.00 in0.0 mm
11:48 AM 43.6°F6.4°C 38.5°F3.6°C 82% 3.0 mph S4.8 kmh S 4.0 mph6.4 kmh 30.28 in1025.4 mb 0.00 in0.0 mm 0.00 in0.0 mm 0.00 in0.0 mm
11:50 AM 43.7°F6.5°C 38.3°F3.5°C 81% 3.0 mph S4.8 kmh S 4.0 mph6.4 kmh 30.28 in1025.4 mb 0.00 in0.0 mm 0.00 in0.0 mm 0.00 in0.0 mm
11:52 AM 43.8°F6.6°C 38.0°F3.3°C 80% Calm Calm 5.0 mph8.0 kmh 30.28 in1025.4 mb 0.00 in0.0 mm 0.00 in0.0 mm 0.00 in0.0 mm
11:54 AM 43.8°F6.6°C 38.4°F3.6°C 81% 2.0 mph SW3.2 kmh SW 2.0 mph3.2 kmh 30.28 in1025.4 mb 0.00 in0.0 mm 0.00 in0.0 mm 0.00 in0.0 mm
11:56 AM 43.9°F6.6°C 38.1°F3.4°C 80% 1.0 mph SSE1.6 kmh SSE 2.0 mph3.2 kmh 30.28 in1025.4 mb 0.00 in0.0 mm 0.00 in0.0 mm 0.00 in0.0 mm
11:58 AM 44.0°F6.7°C 38.2°F3.4°C 80% 2.0 mph ESE3.2 kmh ESE 2.0 mph3.2 kmh 30.28 in1025.4 mb 0.00 in0.0 mm 0.00 in0.0 mm 0.00 in0.0 mm
12:00 PM 44.1°F6.7°C 38.0°F3.3°C 79% 2.0 mph E3.2 kmh E 4.0 mph6.4 kmh 30.28 in1025.4 mb 0.00 in0.0 mm 0.00 in0.0 mm 0.00 in0.0 mm
12:02 PM 44.2°F6.8°C 38.4°F3.6°C 80% 1.0 mph S1.6 kmh S 4.0 mph6.4 kmh 30.28 in1025.4 mb 0.00 in0.0 mm 0.00 in0.0 mm 0.00 in0.0 mm
12:04 PM 44.4°F6.9°C 38.6°F3.7°C 80% 1.0 mph W1.6 kmh W 2.0 mph3.2 kmh 30.28 in1025.4 mb 0.00 in0.0 mm 0.00 in0.0 mm 0.00 in0.0 mm
12:06 PM 44.7°F7.1°C 38.6°F3.7°C 79% 3.0 mph SW4.8 kmh SW 3.0 mph4.8 kmh 30.28 in1025.4 mb 0.00 in0.0 mm 0.00 in0.0 mm 0.00 in0.0 mm
12:08 PM 44.7°F7.1°C 38.3°F3.5°C 78% 2.0 mph S3.2 kmh S 2.0 mph3.2 kmh 30.28 in1025.4 mb 0.00 in0.0 mm 0.00 in0.0 mm 0.00 in0.0 mm
12:10 PM 44.8°F7.1°C 38.0°F3.3°C 77% Calm Calm 3.0 mph4.8 kmh 30.28 in1025.4 mb 0.00 in0.0 mm 0.00 in0.0 mm 0.00 in0.0 mm
12:12 PM 44.8°F7.1°C 38.0°F3.3°C 77% Calm Calm 3.0 mph4.8 kmh 30.28 in1025.4 mb 0.00 in0.0 mm 0.00 in0.0 mm 0.00 in0.0 mm
12:14 PM 44.9°F7.2°C 38.1°F3.4°C 77% 1.0 mph SE1.6 kmh SE 3.0 mph4.8 kmh 30.28 in1025.4 mb 0.00 in0.0 mm 0.00 in0.0 mm 0.00 in0.0 mm
12:16 PM 45.0°F7.2°C 38.2°F3.4°C 77% Calm Calm 3.0 mph4.8 kmh 30.28 in1025.4 mb 0.00 in0.0 mm 0.00 in0.0 mm 0.00 in0.0 mm
12:18 PM 45.1°F7.3°C 38.3°F3.5°C 77% Calm Calm -- 30.28 in1025.4 mb 0.00 in0.0 mm 0.00 in0.0 mm 0.00 in0.0 mm
12:20 PM 45.1°F7.3°C 38.3°F3.5°C 77% Calm Calm 1.0 mph1.6 kmh 30.28 in1025.4 mb 0.00 in0.0 mm 0.00 in0.0 mm 0.00 in0.0 mm
12:22 PM 45.1°F7.3°C 38.3°F3.5°C 77% Calm Calm 1.0 mph1.6 kmh 30.28 in1025.4 mb 0.00 in0.0 mm 0.00 in0.0 mm 0.00 in0.0 mm
12:24 PM 45.2°F7.3°C 38.8°F3.8°C 78% Calm Calm 1.0 mph1.6 kmh 30.29 in1025.7 mb 0.00 in0.0 mm 0.00 in0.0 mm 0.00 in0.0 mm
12:26 PM 45.2°F7.3°C 38.1°F3.4°C 76% Calm Calm 1.0 mph1.6 kmh 30.29 in1025.7 mb 0.00 in0.0 mm 0.00 in0.0 mm 0.00 in0.0 mm
12:28 PM 45.3°F7.4°C 38.5°F3.6°C 77% Calm Calm -- 30.28 in1025.4 mb 0.00 in0.0 mm 0.00 in0.0 mm 0.00 in0.0 mm
12:30 PM 45.4°F7.4°C 39.9°F4.4°C 81% Calm Calm -- 30.29 in1025.7 mb 0.00 in0.0 mm 0.00 in0.0 mm 0.00 in0.0 mm
12:32 PM 45.5°F7.5°C 39.1°F3.9°C 78% 1.0 mph SSE1.6 kmh SSE 1.0 mph1.6 kmh 30.29 in1025.7 mb 0.00 in0.0 mm 0.00 in0.0 mm 0.00 in0.0 mm
12:34 PM 45.6°F7.6°C 38.5°F3.6°C 76% Calm Calm 1.0 mph1.6 kmh 30.29 in1025.7 mb 0.00 in0.0 mm 0.00 in0.0 mm 0.00 in0.0 mm
12:36 PM 45.6°F7.6°C 38.5°F3.6°C 76% Calm Calm 1.0 mph1.6 kmh 30.28 in1025.4 mb 0.00 in0.0 mm 0.00 in0.0 mm 0.00 in0.0 mm
12:38 PM 45.5°F7.5°C 38.4°F3.6°C 76% Calm Calm -- 30.28 in1025.4 mb 0.00 in0.0 mm 0.00 in0.0 mm 0.00 in0.0 mm
12:40 PM 45.5°F7.5°C 38.4°F3.6°C 76% Calm Calm -- 30.28 in1025.4 mb 0.00 in0.0 mm 0.00 in0.0 mm 0.00 in0.0 mm
12:42 PM 45.6°F7.6°C 38.5°F3.6°C 76% Calm Calm -- 30.28 in1025.4 mb 0.00 in0.0 mm 0.00 in0.0 mm 0.00 in0.0 mm
12:44 PM 45.6°F7.6°C 38.5°F3.6°C 76% 1.0 mph SE1.6 kmh SE 1.0 mph1.6 kmh 30.28 in1025.4 mb 0.00 in0.0 mm 0.00 in0.0 mm 0.00 in0.0 mm
12:46 PM 45.6°F7.6°C 38.5°F3.6°C 76% 1.0 mph E1.6 kmh E 1.0 mph1.6 kmh 30.28 in1025.4 mb 0.00 in0.0 mm 0.00 in0.0 mm 0.00 in0.0 mm
12:48 PM 45.5°F7.5°C 38.1°F3.4°C 75% Calm Calm 1.0 mph1.6 kmh 30.28 in1025.4 mb 0.00 in0.0 mm 0.00 in0.0 mm 0.00 in0.0 mm
12:50 PM 45.4°F7.4°C 38.3°F3.5°C 76% 1.0 mph E1.6 kmh E 1.0 mph1.6 kmh 30.28 in1025.4 mb 0.00 in0.0 mm 0.00 in0.0 mm 0.00 in0.0 mm
12:52 PM 45.4°F7.4°C 38.3°F3.5°C 76% Calm Calm 1.0 mph1.6 kmh 30.28 in1025.4 mb 0.00 in0.0 mm 0.00 in0.0 mm 0.00 in0.0 mm
12:54 PM 45.4°F7.4°C 38.6°F3.7°C 77% Calm Calm -- 30.28 in1025.4 mb 0.00 in0.0 mm 0.00 in0.0 mm 0.00 in0.0 mm
12:56 PM 45.5°F7.5°C 38.7°F3.7°C 77% Calm Calm -- 30.28 in1025.4 mb 0.00 in0.0 mm 0.00 in0.0 mm 0.00 in0.0 mm
12:58 PM 45.5°F7.5°C 39.1°F3.9°C 78% Calm Calm -- 30.28 in1025.4 mb 0.00 in0.0 mm 0.00 in0.0 mm 0.00 in0.0 mm
01:00 PM 45.7°F7.6°C 38.9°F3.8°C 77% Calm Calm 1.0 mph1.6 kmh 30.27 in1025.1 mb 0.00 in0.0 mm 0.00 in0.0 mm 0.00 in0.0 mm
01:02 PM 45.7°F7.6°C 38.6°F3.7°C 76% Calm Calm 2.0 mph3.2 kmh 30.27 in1025.1 mb 0.00 in0.0 mm 0.00 in0.0 mm 0.00 in0.0 mm
01:04 PM 45.8°F7.7°C 38.7°F3.7°C 76% Calm Calm 2.0 mph3.2 kmh 30.27 in1025.1 mb 0.00 in0.0 mm 0.00 in0.0 mm 0.00 in0.0 mm
01:06 PM 45.8°F7.7°C 38.7°F3.7°C 76% 1.0 mph SSE1.6 kmh SSE 2.0 mph3.2 kmh 30.27 in1025.1 mb 0.00 in0.0 mm 0.00 in0.0 mm 0.00 in0.0 mm
01:08 PM 45.9°F7.7°C 39.1°F3.9°C 77% Calm Calm -- 30.27 in1025.1 mb 0.00 in0.0 mm 0.00 in0.0 mm 0.00 in0.0 mm
01:10 PM 45.9°F7.7°C 38.8°F3.8°C 76% Calm Calm -- 30.27 in1025.1 mb 0.00 in0.0 mm 0.00 in0.0 mm 0.00 in0.0 mm
01:12 PM 45.9°F7.7°C 39.1°F3.9°C 77% 1.0 mph SSW1.6 kmh SSW 1.0 mph1.6 kmh 30.26 in1024.7 mb 0.00 in0.0 mm 0.00 in0.0 mm 0.00 in0.0 mm
01:14 PM 45.9°F7.7°C 39.1°F3.9°C 77% Calm Calm -- 30.26 in1024.7 mb 0.00 in0.0 mm 0.00 in0.0 mm 0.00 in0.0 mm
01:16 PM 45.9°F7.7°C 39.4°F4.1°C 78% Calm Calm -- 30.26 in1024.7 mb 0.00 in0.0 mm 0.00 in0.0 mm 0.00 in0.0 mm
01:18 PM 45.9°F7.7°C 39.8°F4.3°C 79% Calm Calm -- 30.26 in1024.7 mb 0.00 in0.0 mm 0.00 in0.0 mm 0.00 in0.0 mm
01:20 PM 46.0°F7.8°C 40.2°F4.6°C 80% Calm Calm -- 30.25 in1024.4 mb 0.00 in0.0 mm 0.00 in0.0 mm 0.00 in0.0 mm
01:22 PM 46.0°F7.8°C 40.5°F4.7°C 81% Calm Calm -- 30.25 in1024.4 mb 0.00 in0.0 mm 0.00 in0.0 mm 0.00 in0.0 mm
01:24 PM 46.0°F7.8°C 40.2°F4.6°C 80% 1.0 mph SE1.6 kmh SE 1.0 mph1.6 kmh 30.25 in1024.4 mb 0.00 in0.0 mm 0.00 in0.0 mm 0.00 in0.0 mm
01:26 PM 45.8°F7.7°C 40.0°F4.4°C 80% Calm Calm 1.0 mph1.6 kmh 30.25 in1024.4 mb 0.00 in0.0 mm 0.00 in0.0 mm 0.00 in0.0 mm
01:28 PM 45.7°F7.6°C 40.2°F4.6°C 81% Calm Calm -- 30.25 in1024.4 mb 0.00 in0.0 mm 0.00 in0.0 mm 0.00 in0.0 mm
01:30 PM 45.6°F7.6°C 40.7°F4.8°C 83% Calm Calm -- 30.25 in1024.4 mb 0.00 in0.0 mm 0.00 in0.0 mm 0.00 in0.0 mm
01:32 PM 45.6°F7.6°C 40.7°F4.8°C 83% Calm Calm -- 30.25 in1024.4 mb 0.00 in0.0 mm 0.00 in0.0 mm 0.00 in0.0 mm
01:34 PM 45.5°F7.5°C 40.7°F4.8°C 83% Calm Calm -- 30.24 in1024.0 mb 0.00 in0.0 mm 0.00 in0.0 mm 0.00 in0.0 mm
01:36 PM 45.4°F7.4°C 40.6°F4.8°C 83% Calm Calm -- 30.24 in1024.0 mb 0.00 in0.0 mm 0.00 in0.0 mm 0.00 in0.0 mm
01:38 PM 45.4°F7.4°C 40.9°F4.9°C 84% Calm Calm -- 30.24 in1024.0 mb 0.00 in0.0 mm 0.00 in0.0 mm 0.00 in0.0 mm
01:40 PM 45.4°F7.4°C 40.9°F4.9°C 84% Calm Calm -- 30.24 in1024.0 mb 0.00 in0.0 mm 0.00 in0.0 mm 0.00 in0.0 mm
01:42 PM 45.5°F7.5°C 41.0°F5.0°C 84% Calm Calm -- 30.24 in1024.0 mb 0.00 in0.0 mm 0.00 in0.0 mm 0.00 in0.0 mm
01:44 PM 45.5°F7.5°C 41.0°F5.0°C 84% Calm Calm -- 30.24 in1024.0 mb 0.00 in0.0 mm 0.00 in0.0 mm 0.00 in0.0 mm
01:46 PM 45.7°F7.6°C 41.2°F5.1°C 84% Calm Calm -- 30.24 in1024.0 mb 0.00 in0.0 mm 0.00 in0.0 mm 0.00 in0.0 mm
01:48 PM 45.7°F7.6°C 40.2°F4.6°C 81% Calm Calm -- 30.24 in1024.0 mb 0.01 in0.3 mm 0.30 in7.6 mm 0.01 in0.3 mm
01:50 PM 45.7°F7.6°C 40.2°F4.6°C 81% Calm Calm -- 30.24 in1024.0 mb 0.01 in0.3 mm 0.00 in0.0 mm 0.01 in0.3 mm
01:52 PM 45.6°F7.6°C 40.1°F4.5°C 81% Calm Calm -- 30.24 in1024.0 mb 0.01 in0.3 mm 0.00 in0.0 mm 0.01 in0.3 mm
01:54 PM 45.5°F7.5°C 39.7°F4.3°C 80% Calm Calm 1.0 mph1.6 kmh 30.24 in1024.0 mb 0.01 in0.3 mm 0.00 in0.0 mm 0.01 in0.3 mm
01:56 PM 45.5°F7.5°C 40.0°F4.4°C 81% Calm Calm 1.0 mph1.6 kmh 30.24 in1024.0 mb 0.01 in0.3 mm 0.00 in0.0 mm 0.01 in0.3 mm
01:58 PM 45.6°F7.6°C 40.7°F4.8°C 83% Calm Calm 1.0 mph1.6 kmh 30.24 in1024.0 mb 0.01 in0.3 mm 0.00 in0.0 mm 0.01 in0.3 mm
02:00 PM 45.6°F7.6°C 40.1°F4.5°C 81% Calm Calm 1.0 mph1.6 kmh 30.24 in1024.0 mb 0.01 in0.3 mm 0.00 in0.0 mm 0.01 in0.3 mm
02:02 PM 45.7°F7.6°C 40.5°F4.7°C 82% Calm Calm 2.0 mph3.2 kmh 30.24 in1024.0 mb 0.01 in0.3 mm 0.00 in0.0 mm 0.01 in0.3 mm
02:04 PM 45.7°F7.6°C 40.2°F4.6°C 81% 1.0 mph N1.6 kmh N 1.0 mph1.6 kmh 30.23 in1023.7 mb 0.01 in0.3 mm 0.00 in0.0 mm 0.01 in0.3 mm
02:06 PM 45.7°F7.6°C 39.9°F4.4°C 80% 1.0 mph N1.6 kmh N 1.0 mph1.6 kmh 30.23 in1023.7 mb 0.01 in0.3 mm 0.00 in0.0 mm 0.01 in0.3 mm
02:08 PM 45.8°F7.7°C 40.6°F4.8°C 82% Calm Calm -- 30.23 in1023.7 mb 0.01 in0.3 mm 0.00 in0.0 mm 0.01 in0.3 mm
02:10 PM 46.0°F7.8°C 40.8°F4.9°C 82% Calm Calm -- 30.23 in1023.7 mb 0.01 in0.3 mm 0.00 in0.0 mm 0.01 in0.3 mm
02:12 PM 46.2°F7.9°C 41.3°F5.2°C 83% Calm Calm -- 30.23 in1023.7 mb 0.01 in0.3 mm 0.00 in0.0 mm 0.01 in0.3 mm
02:14 PM 46.3°F7.9°C 41.1°F5.1°C 82% Calm Calm 1.0 mph1.6 kmh 30.23 in1023.7 mb 0.01 in0.3 mm 0.00 in0.0 mm 0.01 in0.3 mm
02:16 PM 46.4°F8.0°C 40.9°F4.9°C 81% Calm Calm 1.0 mph1.6 kmh 30.23 in1023.7 mb 0.01 in0.3 mm 0.00 in0.0 mm 0.01 in0.3 mm
02:18 PM 46.5°F8.1°C 41.0°F5.0°C 81% Calm Calm -- 30.23 in1023.7 mb 0.01 in0.3 mm 0.00 in0.0 mm 0.01 in0.3 mm
02:20 PM 46.5°F8.1°C 41.3°F5.2°C 82% Calm Calm -- 30.22 in1023.4 mb 0.01 in0.3 mm 0.00 in0.0 mm 0.01 in0.3 mm
02:22 PM 46.5°F8.1°C 41.0°F5.0°C 81% Calm Calm 1.0 mph1.6 kmh 30.22 in1023.4 mb 0.01 in0.3 mm 0.00 in0.0 mm 0.01 in0.3 mm
02:24 PM 46.5°F8.1°C 41.0°F5.0°C 81% Calm Calm -- 30.22 in1023.4 mb 0.01 in0.3 mm 0.00 in0.0 mm 0.01 in0.3 mm
02:26 PM 46.6°F8.1°C 41.1°F5.1°C 81% Calm Calm -- 30.22 in1023.4 mb 0.01 in0.3 mm 0.00 in0.0 mm 0.01 in0.3 mm
02:28 PM 46.7°F8.2°C 41.5°F5.3°C 82% Calm Calm -- 30.22 in1023.4 mb 0.01 in0.3 mm 0.00 in0.0 mm 0.01 in0.3 mm
02:30 PM 46.8°F8.2°C 41.3°F5.2°C 81% Calm Calm 1.0 mph1.6 kmh 30.22 in1023.4 mb 0.01 in0.3 mm 0.00 in0.0 mm 0.01 in0.3 mm
02:32 PM 46.9°F8.3°C 41.1°F5.1°C 80% 1.0 mph SW1.6 kmh SW 1.0 mph1.6 kmh 30.22 in1023.4 mb 0.01 in0.3 mm 0.00 in0.0 mm 0.01 in0.3 mm
02:34 PM 46.9°F8.3°C 41.4°F5.2°C 81% 2.0 mph WSW3.2 kmh WSW 2.0 mph3.2 kmh 30.23 in1023.7 mb 0.01 in0.3 mm 0.00 in0.0 mm 0.01 in0.3 mm
02:36 PM 46.8°F8.2°C 41.0°F5.0°C 80% Calm Calm 2.0 mph3.2 kmh 30.23 in1023.7 mb 0.01 in0.3 mm 0.00 in0.0 mm 0.01 in0.3 mm
02:38 PM 46.8°F8.2°C 41.0°F5.0°C 80% Calm Calm -- 30.23 in1023.7 mb 0.01 in0.3 mm 0.00 in0.0 mm 0.01 in0.3 mm
02:40 PM 46.8°F8.2°C 40.6°F4.8°C 79% 1.0 mph WSW1.6 kmh WSW 2.0 mph3.2 kmh 30.22 in1023.4 mb 0.01 in0.3 mm 0.00 in0.0 mm 0.01 in0.3 mm
02:42 PM 46.7°F8.2°C 40.5°F4.7°C 79% 1.0 mph SSW1.6 kmh SSW 3.0 mph4.8 kmh 30.23 in1023.7 mb 0.01 in0.3 mm 0.00 in0.0 mm 0.01 in0.3 mm
02:44 PM 46.6°F8.1°C 40.5°F4.7°C 79% 1.0 mph SW1.6 kmh SW 2.0 mph3.2 kmh 30.23 in1023.7 mb 0.01 in0.3 mm 0.00 in0.0 mm 0.01 in0.3 mm
02:46 PM 46.6°F8.1°C 40.8°F4.9°C 80% Calm Calm 2.0 mph3.2 kmh 30.22 in1023.4 mb 0.01 in0.3 mm 0.00 in0.0 mm 0.01 in0.3 mm
02:48 PM 46.7°F8.2°C 41.2°F5.1°C 81% Calm Calm -- 30.22 in1023.4 mb 0.00 in0.0 mm 0.00 in0.0 mm 0.01 in0.3 mm
02:50 PM 46.7°F8.2°C 40.9°F4.9°C 80% Calm Calm 3.0 mph4.8 kmh 30.22 in1023.4 mb 0.00 in0.0 mm 0.00 in0.0 mm 0.01 in0.3 mm
02:52 PM 46.6°F8.1°C 40.8°F4.9°C 80% 1.0 mph WSW1.6 kmh WSW 3.0 mph4.8 kmh 30.22 in1023.4 mb 0.00 in0.0 mm 0.00 in0.0 mm 0.01 in0.3 mm
02:54 PM 46.5°F8.1°C 40.7°F4.8°C 80% 1.0 mph SW1.6 kmh SW 1.0 mph1.6 kmh 30.22 in1023.4 mb 0.00 in0.0 mm 0.00 in0.0 mm 0.01 in0.3 mm
02:56 PM 46.4°F8.0°C 40.9°F4.9°C 81% 2.0 mph SSW3.2 kmh SSW 4.0 mph6.4 kmh 30.22 in1023.4 mb 0.00 in0.0 mm 0.00 in0.0 mm 0.01 in0.3 mm
02:58 PM 46.4°F8.0°C 41.2°F5.1°C 82% Calm Calm 1.0 mph1.6 kmh 30.22 in1023.4 mb 0.00 in0.0 mm 0.00 in0.0 mm 0.01 in0.3 mm
03:00 PM 46.3°F7.9°C 40.8°F4.9°C 81% 3.0 mph SW4.8 kmh SW 4.0 mph6.4 kmh 30.22 in1023.4 mb 0.00 in0.0 mm 0.00 in0.0 mm 0.01 in0.3 mm
03:02 PM 46.2°F7.9°C 40.7°F4.8°C 81% 2.0 mph SW3.2 kmh SW 4.0 mph6.4 kmh 30.22 in1023.4 mb 0.00 in0.0 mm 0.00 in0.0 mm 0.01 in0.3 mm
03:04 PM 46.1°F7.8°C 40.6°F4.8°C 81% 5.0 mph WSW8.0 kmh WSW 6.0 mph9.7 kmh 30.22 in1023.4 mb 0.00 in0.0 mm 0.00 in0.0 mm 0.01 in0.3 mm
03:06 PM 45.9°F7.7°C 40.4°F4.7°C 81% 2.0 mph SW3.2 kmh SW 6.0 mph9.7 kmh 30.22 in1023.4 mb 0.00 in0.0 mm 0.00 in0.0 mm 0.01 in0.3 mm
03:08 PM 45.7°F7.6°C 40.2°F4.6°C 81% 3.0 mph W4.8 kmh W 4.0 mph6.4 kmh 30.21 in1023.0 mb 0.00 in0.0 mm 0.00 in0.0 mm 0.01 in0.3 mm
03:10 PM 45.6°F7.6°C 40.1°F4.5°C 81% Calm Calm 4.0 mph6.4 kmh 30.21 in1023.0 mb 0.00 in0.0 mm 0.00 in0.0 mm 0.01 in0.3 mm
03:12 PM 45.6°F7.6°C 40.4°F4.7°C 82% 1.0 mph W1.6 kmh W 4.0 mph6.4 kmh 30.21 in1023.0 mb 0.00 in0.0 mm 0.00 in0.0 mm 0.01 in0.3 mm
03:14 PM 45.5°F7.5°C 40.3°F4.6°C 82% 2.0 mph WSW3.2 kmh WSW 3.0 mph4.8 kmh 30.21 in1023.0 mb 0.00 in0.0 mm 0.00 in0.0 mm 0.01 in0.3 mm
03:16 PM 45.5°F7.5°C 40.3°F4.6°C 82% 1.0 mph SW1.6 kmh SW 4.0 mph6.4 kmh 30.21 in1023.0 mb 0.00 in0.0 mm 0.00 in0.0 mm 0.01 in0.3 mm
03:18 PM 45.4°F7.4°C 40.6°F4.8°C 83% 2.0 mph WSW3.2 kmh WSW 3.0 mph4.8 kmh 30.21 in1023.0 mb 0.00 in0.0 mm 0.00 in0.0 mm 0.01 in0.3 mm
03:20 PM 45.4°F7.4°C 40.9°F4.9°C 84% 3.0 mph SSE4.8 kmh SSE 4.0 mph6.4 kmh 30.21 in1023.0 mb 0.00 in0.0 mm 0.00 in0.0 mm 0.01 in0.3 mm
03:22 PM 45.3°F7.4°C 40.5°F4.7°C 83% 4.0 mph SSW6.4 kmh SSW 5.0 mph8.0 kmh 30.21 in1023.0 mb 0.00 in0.0 mm 0.00 in0.0 mm 0.01 in0.3 mm
03:24 PM 45.2°F7.3°C 40.7°F4.8°C 84% 2.0 mph SW3.2 kmh SW 5.0 mph8.0 kmh 30.21 in1023.0 mb 0.00 in0.0 mm 0.00 in0.0 mm 0.01 in0.3 mm
03:26 PM 45.1°F7.3°C 40.6°F4.8°C 84% 4.0 mph SW6.4 kmh SW 5.0 mph8.0 kmh 30.21 in1023.0 mb 0.00 in0.0 mm 0.00 in0.0 mm 0.01 in0.3 mm
03:28 PM 44.9°F7.2°C 40.4°F4.7°C 84% 4.0 mph SW6.4 kmh SW 4.0 mph6.4 kmh 30.21 in1023.0 mb 0.00 in0.0 mm 0.00 in0.0 mm 0.01 in0.3 mm
03:30 PM 44.7°F7.1°C 40.5°F4.7°C 85% 3.0 mph WSW4.8 kmh WSW 5.0 mph8.0 kmh 30.21 in1023.0 mb 0.00 in0.0 mm 0.00 in0.0 mm 0.01 in0.3 mm
03:32 PM 44.6°F7.0°C 40.7°F4.8°C 86% 2.0 mph SW3.2 kmh SW 5.0 mph8.0 kmh 30.21 in1023.0 mb 0.00 in0.0 mm 0.00 in0.0 mm 0.01 in0.3 mm
03:34 PM 44.5°F6.9°C 40.9°F4.9°C 87% 2.0 mph SW3.2 kmh SW 3.0 mph4.8 kmh 30.21 in1023.0 mb 0.00 in0.0 mm 0.00 in0.0 mm 0.01 in0.3 mm
03:36 PM 44.4°F6.9°C 40.8°F4.9°C 87% 4.0 mph SW6.4 kmh SW 4.0 mph6.4 kmh 30.20 in1022.7 mb 0.00 in0.0 mm 0.00 in0.0 mm 0.01 in0.3 mm
03:38 PM 44.3°F6.8°C 40.7°F4.8°C 87% Calm Calm 2.0 mph3.2 kmh 30.20 in1022.7 mb 0.00 in0.0 mm 0.00 in0.0 mm 0.01 in0.3 mm
03:40 PM 44.3°F6.8°C 41.0°F5.0°C 88% 2.0 mph S3.2 kmh S 2.0 mph3.2 kmh 30.20 in1022.7 mb 0.00 in0.0 mm 0.00 in0.0 mm 0.01 in0.3 mm
03:42 PM 44.3°F6.8°C 41.0°F5.0°C 88% 1.0 mph S1.6 kmh S 3.0 mph4.8 kmh 30.20 in1022.7 mb 0.00 in0.0 mm 0.00 in0.0 mm 0.01 in0.3 mm
03:44 PM 44.3°F6.8°C 41.0°F5.0°C 88% 2.0 mph WSW3.2 kmh WSW 5.0 mph8.0 kmh 30.20 in1022.7 mb 0.00 in0.0 mm 0.00 in0.0 mm 0.01 in0.3 mm
03:46 PM 44.3°F6.8°C 41.0°F5.0°C 88% 3.0 mph WSW4.8 kmh WSW 5.0 mph8.0 kmh 30.20 in1022.7 mb 0.00 in0.0 mm 0.00 in0.0 mm 0.01 in0.3 mm
03:48 PM 44.2°F6.8°C 41.2°F5.1°C 89% Calm Calm 1.0 mph1.6 kmh 30.20 in1022.7 mb 0.00 in0.0 mm 0.00 in0.0 mm 0.01 in0.3 mm
03:50 PM 44.1°F6.7°C 41.1°F5.1°C 89% 1.0 mph WSW1.6 kmh WSW 3.0 mph4.8 kmh 30.20 in1022.7 mb 0.00 in0.0 mm 0.00 in0.0 mm 0.01 in0.3 mm
03:52 PM 44.1°F6.7°C 41.4°F5.2°C 90% 1.0 mph WSW1.6 kmh WSW 3.0 mph4.8 kmh 30.20 in1022.7 mb 0.00 in0.0 mm 0.00 in0.0 mm 0.01 in0.3 mm
03:54 PM 44.1°F6.7°C 41.4°F5.2°C 90% 2.0 mph S3.2 kmh S 2.0 mph3.2 kmh 30.20 in1022.7 mb 0.00 in0.0 mm 0.00 in0.0 mm 0.01 in0.3 mm
03:56 PM 44.2°F6.8°C 41.5°F5.3°C 90% Calm Calm 2.0 mph3.2 kmh 30.20 in1022.7 mb 0.00 in0.0 mm 0.00 in0.0 mm 0.01 in0.3 mm
03:58 PM 44.2°F6.8°C 41.7°F5.4°C 91% Calm Calm 1.0 mph1.6 kmh 30.20 in1022.7 mb 0.00 in0.0 mm 0.00 in0.0 mm 0.01 in0.3 mm
04:00 PM 44.2°F6.8°C 41.7°F5.4°C 91% Calm Calm 1.0 mph1.6 kmh 30.20 in1022.7 mb 0.00 in0.0 mm 0.00 in0.0 mm 0.01 in0.3 mm
04:02 PM 44.2°F6.8°C 41.7°F5.4°C 91% Calm Calm 1.0 mph1.6 kmh 30.20 in1022.7 mb 0.00 in0.0 mm 0.00 in0.0 mm 0.01 in0.3 mm
04:04 PM 44.2°F6.8°C 41.7°F5.4°C 91% Calm Calm 1.0 mph1.6 kmh 30.20 in1022.7 mb 0.00 in0.0 mm 0.00 in0.0 mm 0.01 in0.3 mm
04:06 PM 44.2°F6.8°C 41.7°F5.4°C 91% Calm Calm 1.0 mph1.6 kmh 30.20 in1022.7 mb 0.00 in0.0 mm 0.00 in0.0 mm 0.01 in0.3 mm
04:08 PM 44.2°F6.8°C 41.7°F5.4°C 91% Calm Calm -- 30.20 in1022.7 mb 0.00 in0.0 mm 0.00 in0.0 mm 0.01 in0.3 mm
04:10 PM 44.1°F6.7°C 41.7°F5.4°C 91% Calm Calm -- 30.20 in1022.7 mb 0.00 in0.0 mm 0.00 in0.0 mm 0.01 in0.3 mm
04:12 PM 44.1°F6.7°C 41.7°F5.4°C 91% Calm Calm -- 30.20 in1022.7 mb 0.00 in0.0 mm 0.00 in0.0 mm 0.01 in0.3 mm
04:14 PM 44.1°F6.7°C 41.7°F5.4°C 91% Calm Calm -- 30.20 in1022.7 mb 0.00 in0.0 mm 0.00 in0.0 mm 0.01 in0.3 mm
04:16 PM 44.1°F6.7°C 41.7°F5.4°C 91% Calm Calm -- 30.20 in1022.7 mb 0.00 in0.0 mm 0.00 in0.0 mm 0.01 in0.3 mm
04:18 PM 44.2°F6.8°C 41.7°F5.4°C 91% Calm Calm -- 30.20 in1022.7 mb 0.00 in0.0 mm 0.00 in0.0 mm 0.01 in0.3 mm
04:20 PM 44.3°F6.8°C 41.8°F5.4°C 91% Calm Calm -- 30.20 in1022.7 mb 0.00 in0.0 mm 0.00 in0.0 mm 0.01 in0.3 mm
04:22 PM 44.3°F6.8°C 41.8°F5.4°C 91% Calm Calm -- 30.20 in1022.7 mb 0.00 in0.0 mm 0.00 in0.0 mm 0.01 in0.3 mm
04:24 PM 44.3°F6.8°C 42.1°F5.6°C 92% Calm Calm -- 30.20 in1022.7 mb 0.00 in0.0 mm 0.00 in0.0 mm 0.01 in0.3 mm
04:26 PM 44.3°F6.8°C 42.1°F5.6°C 92% Calm Calm -- 30.20 in1022.7 mb 0.00 in0.0 mm 0.00 in0.0 mm 0.01 in0.3 mm
04:28 PM 44.3°F6.8°C 42.1°F5.6°C 92% Calm Calm -- 30.20 in1022.7 mb 0.00 in0.0 mm 0.00 in0.0 mm 0.01 in0.3 mm
04:30 PM 44.3°F6.8°C 42.1°F5.6°C 92% Calm Calm -- 30.20 in1022.7 mb 0.00 in0.0 mm 0.00 in0.0 mm 0.01 in0.3 mm
04:32 PM 44.2°F6.8°C 42.0°F5.6°C 92% Calm Calm -- 30.20 in1022.7 mb 0.00 in0.0 mm 0.00 in0.0 mm 0.01 in0.3 mm
04:34 PM 44.1°F6.7°C 41.9°F5.5°C 92% Calm Calm -- 30.20 in1022.7 mb 0.00 in0.0 mm 0.00 in0.0 mm 0.01 in0.3 mm
04:36 PM 44.0°F6.7°C 41.8°F5.4°C 92% Calm Calm -- 30.20 in1022.7 mb 0.00 in0.0 mm 0.00 in0.0 mm 0.01 in0.3 mm
04:38 PM 44.0°F6.7°C 41.8°F5.4°C 92% Calm Calm -- 30.20 in1022.7 mb 0.01 in0.3 mm 0.30 in7.6 mm 0.02 in0.5 mm
04:40 PM 44.0°F6.7°C 42.1°F5.6°C 93% Calm Calm -- 30.20 in1022.7 mb 0.01 in0.3 mm 0.00 in0.0 mm 0.02 in0.5 mm
04:42 PM 44.0°F6.7°C 42.1°F5.6°C 93% 1.0 mph ENE1.6 kmh ENE 1.0 mph1.6 kmh 30.20 in1022.7 mb 0.01 in0.3 mm 0.00 in0.0 mm 0.02 in0.5 mm
04:44 PM 43.9°F6.6°C 42.0°F5.6°C 93% Calm Calm 1.0 mph1.6 kmh 30.20 in1022.7 mb 0.01 in0.3 mm 0.00 in0.0 mm 0.02 in0.5 mm
04:46 PM 43.9°F6.6°C 42.0°F5.6°C 93% Calm Calm 1.0 mph1.6 kmh 30.20 in1022.7 mb 0.01 in0.3 mm 0.00 in0.0 mm 0.02 in0.5 mm
04:48 PM 43.9°F6.6°C 42.3°F5.7°C 94% Calm Calm 1.0 mph1.6 kmh 30.19 in1022.4 mb 0.01 in0.3 mm 0.00 in0.0 mm 0.02 in0.5 mm
04:50 PM 43.9°F6.6°C 42.3°F5.7°C 94% Calm Calm 1.0 mph1.6 kmh 30.19 in1022.4 mb 0.01 in0.3 mm 0.00 in0.0 mm 0.02 in0.5 mm
04:52 PM 43.8°F6.6°C 42.2°F5.7°C 94% Calm Calm 1.0 mph1.6 kmh 30.19 in1022.4 mb 0.01 in0.3 mm 0.00 in0.0 mm 0.02 in0.5 mm
04:54 PM 43.8°F6.6°C 42.2°F5.7°C 94% Calm Calm -- 30.19 in1022.4 mb 0.01 in0.3 mm 0.00 in0.0 mm 0.02 in0.5 mm
04:56 PM 43.8°F6.6°C 42.2°F5.7°C 94% Calm Calm 1.0 mph1.6 kmh 30.19 in1022.4 mb 0.01 in0.3 mm 0.00 in0.0 mm 0.02 in0.5 mm
04:58 PM 43.7°F6.5°C 42.1°F5.6°C 94% Calm Calm -- 30.19 in1022.4 mb 0.01 in0.3 mm 0.00 in0.0 mm 0.02 in0.5 mm
05:00 PM 43.7°F6.5°C 42.1°F5.6°C 94% Calm Calm -- 30.19 in1022.4 mb 0.01 in0.3 mm 0.00 in0.0 mm 0.02 in0.5 mm
05:02 PM 43.7°F6.5°C 42.1°F5.6°C 94% Calm Calm -- 30.19 in1022.4 mb 0.01 in0.3 mm 0.00 in0.0 mm 0.02 in0.5 mm
05:04 PM 43.8°F6.6°C 42.2°F5.7°C 94% Calm Calm -- 30.19 in1022.4 mb 0.02 in0.5 mm 0.30 in7.6 mm 0.03 in0.8 mm
05:06 PM 43.8°F6.6°C 42.2°F5.7°C 94% Calm Calm -- 30.19 in1022.4 mb 0.02 in0.5 mm 0.00 in0.0 mm 0.03 in0.8 mm
05:08 PM 43.8°F6.6°C 42.5°F5.8°C 95% Calm Calm -- 30.20 in1022.7 mb 0.02 in0.5 mm 0.00 in0.0 mm 0.03 in0.8 mm
05:10 PM 43.9°F6.6°C 42.6°F5.9°C 95% Calm Calm -- 30.20 in1022.7 mb 0.02 in0.5 mm 0.00 in0.0 mm 0.03 in0.8 mm
05:12 PM 43.9°F6.6°C 42.3°F5.7°C 94% Calm Calm 1.0 mph1.6 kmh 30.21 in1023.0 mb 0.02 in0.5 mm 0.00 in0.0 mm 0.03 in0.8 mm
05:14 PM 43.8°F6.6°C 42.2°F5.7°C 94% Calm Calm -- 30.21 in1023.0 mb 0.02 in0.5 mm 0.00 in0.0 mm 0.03 in0.8 mm
05:16 PM 43.7°F6.5°C 42.1°F5.6°C 94% Calm Calm -- 30.22 in1023.4 mb 0.02 in0.5 mm 0.00 in0.0 mm 0.03 in0.8 mm
05:18 PM 43.7°F6.5°C 42.4°F5.8°C 95% Calm Calm -- 30.23 in1023.7 mb 0.02 in0.5 mm 0.00 in0.0 mm 0.03 in0.8 mm
05:20 PM 43.7°F6.5°C 42.4°F5.8°C 95% Calm Calm -- 30.23 in1023.7 mb 0.02 in0.5 mm 0.00 in0.0 mm 0.03 in0.8 mm
05:22 PM 43.6°F6.4°C 42.3°F5.7°C 95% Calm Calm -- 30.23 in1023.7 mb 0.02 in0.5 mm 0.00 in0.0 mm 0.03 in0.8 mm
05:24 PM 43.6°F6.4°C 42.3°F5.7°C 95% 2.0 mph SE3.2 kmh SE 2.0 mph3.2 kmh 30.22 in1023.4 mb 0.03 in0.8 mm 0.30 in7.6 mm 0.04 in1.0 mm
05:26 PM 43.5°F6.4°C 42.2°F5.7°C 95% 2.0 mph SSE3.2 kmh SSE 3.0 mph4.8 kmh 30.21 in1023.0 mb 0.05 in1.3 mm 0.60 in15.2 mm 0.06 in1.5 mm
05:28 PM 43.4°F6.3°C 42.1°F5.6°C 95% 1.0 mph SW1.6 kmh SW 2.0 mph3.2 kmh 30.22 in1023.4 mb 0.07 in1.8 mm 0.60 in15.2 mm 0.08 in2.0 mm
05:30 PM 43.3°F6.3°C 42.0°F5.6°C 95% Calm Calm 2.0 mph3.2 kmh 30.22 in1023.4 mb 0.08 in2.0 mm 0.30 in7.6 mm 0.09 in2.3 mm
05:32 PM 43.2°F6.2°C 41.9°F5.5°C 95% Calm Calm 2.0 mph3.2 kmh 30.22 in1023.4 mb 0.09 in2.3 mm 0.30 in7.6 mm 0.10 in2.5 mm
05:34 PM 43.2°F6.2°C 41.9°F5.5°C 95% Calm Calm -- 30.22 in1023.4 mb 0.10 in2.5 mm 0.30 in7.6 mm 0.11 in2.8 mm
05:36 PM 43.1°F6.2°C 41.8°F5.4°C 95% Calm Calm -- 30.22 in1023.4 mb 0.11 in2.8 mm 0.30 in7.6 mm 0.12 in3.0 mm
05:38 PM 43.1°F6.2°C 41.8°F5.4°C 95% Calm Calm -- 30.22 in1023.4 mb 0.12 in3.0 mm 0.30 in7.6 mm 0.13 in3.3 mm
05:40 PM 43.1°F6.2°C 41.8°F5.4°C 95% Calm Calm -- 30.22 in1023.4 mb 0.13 in3.3 mm 0.30 in7.6 mm 0.14 in3.6 mm
05:42 PM 43.1°F6.2°C 42.0°F5.6°C 96% Calm Calm -- 30.22 in1023.4 mb 0.13 in3.3 mm 0.00 in0.0 mm 0.14 in3.6 mm
05:44 PM 43.1°F6.2°C 42.0°F5.6°C 96% Calm Calm 1.0 mph1.6 kmh 30.22 in1023.4 mb 0.13 in3.3 mm 0.00 in0.0 mm 0.14 in3.6 mm
05:46 PM 43.1°F6.2°C 42.0°F5.6°C 96% 1.0 mph SE1.6 kmh SE 1.0 mph1.6 kmh 30.21 in1023.0 mb 0.14 in3.6 mm 0.30 in7.6 mm 0.15 in3.8 mm
05:48 PM 43.0°F6.1°C 41.9°F5.5°C 96% Calm Calm -- 30.21 in1023.0 mb 0.14 in3.6 mm 0.00 in0.0 mm 0.15 in3.8 mm
05:50 PM 42.9°F6.1°C 41.8°F5.4°C 96% 1.0 mph SE1.6 kmh SE 2.0 mph3.2 kmh 30.21 in1023.0 mb 0.15 in3.8 mm 0.30 in7.6 mm 0.16 in4.1 mm
05:52 PM 42.9°F6.1°C 41.8°F5.4°C 96% 1.0 mph ESE1.6 kmh ESE 2.0 mph3.2 kmh 30.20 in1022.7 mb 0.15 in3.8 mm 0.00 in0.0 mm 0.16 in4.1 mm
05:54 PM 42.9°F6.1°C 41.8°F5.4°C 96% 1.0 mph ESE1.6 kmh ESE 3.0 mph4.8 kmh 30.20 in1022.7 mb 0.15 in3.8 mm 0.00 in0.0 mm 0.16 in4.1 mm
05:56 PM 42.8°F6.0°C 41.7°F5.4°C 96% Calm Calm 3.0 mph4.8 kmh 30.20 in1022.7 mb 0.15 in3.8 mm 0.00 in0.0 mm 0.16 in4.1 mm
05:58 PM 42.8°F6.0°C 41.7°F5.4°C 96% 2.0 mph ESE3.2 kmh ESE 3.0 mph4.8 kmh 30.20 in1022.7 mb 0.15 in3.8 mm 0.00 in0.0 mm 0.16 in4.1 mm
06:00 PM 42.8°F6.0°C 41.7°F5.4°C 96% Calm Calm 3.0 mph4.8 kmh 30.20 in1022.7 mb 0.15 in3.8 mm 0.00 in0.0 mm 0.16 in4.1 mm
06:02 PM 42.8°F6.0°C 41.7°F5.4°C 96% 2.0 mph E3.2 kmh E 3.0 mph4.8 kmh 30.20 in1022.7 mb 0.15 in3.8 mm 0.00 in0.0 mm 0.16 in4.1 mm
06:04 PM 42.8°F6.0°C 41.7°F5.4°C 96% Calm Calm 1.0 mph1.6 kmh 30.20 in1022.7 mb 0.15 in3.8 mm 0.00 in0.0 mm 0.16 in4.1 mm
06:06 PM 42.9°F6.1°C 41.8°F5.4°C 96% Calm Calm 1.0 mph1.6 kmh 30.20 in1022.7 mb 0.15 in3.8 mm 0.00 in0.0 mm 0.16 in4.1 mm
06:08 PM 42.9°F6.1°C 41.8°F5.4°C 96% Calm Calm -- 30.21 in1023.0 mb 0.14 in3.6 mm 0.00 in0.0 mm 0.16 in4.1 mm
06:10 PM 42.9°F6.1°C 41.8°F5.4°C 96% Calm Calm -- 30.21 in1023.0 mb 0.14 in3.6 mm 0.00 in0.0 mm 0.16 in4.1 mm
06:12 PM 42.9°F6.1°C 41.8°F5.4°C 96% Calm Calm -- 30.20 in1022.7 mb 0.14 in3.6 mm 0.00 in0.0 mm 0.16 in4.1 mm
06:14 PM 42.9°F6.1°C 41.8°F5.4°C 96% Calm Calm 2.0 mph3.2 kmh 30.20 in1022.7 mb 0.14 in3.6 mm 0.00 in0.0 mm 0.16 in4.1 mm
06:16 PM 42.9°F6.1°C 41.8°F5.4°C 96% Calm Calm 3.0 mph4.8 kmh 30.19 in1022.4 mb 0.15 in3.8 mm 0.30 in7.6 mm 0.17 in4.3 mm
06:18 PM 42.9°F6.1°C 41.8°F5.4°C 96% 1.0 mph E1.6 kmh E 1.0 mph1.6 kmh 30.18 in1022.0 mb 0.15 in3.8 mm 0.00 in0.0 mm 0.17 in4.3 mm
06:20 PM 42.9°F6.1°C 41.8°F5.4°C 96% Calm Calm 4.0 mph6.4 kmh 30.18 in1022.0 mb 0.15 in3.8 mm 0.00 in0.0 mm 0.17 in4.3 mm
06:22 PM 42.9°F6.1°C 41.8°F5.4°C 96% 2.0 mph SE3.2 kmh SE 4.0 mph6.4 kmh 30.18 in1022.0 mb 0.15 in3.8 mm 0.00 in0.0 mm 0.17 in4.3 mm
06:24 PM 42.9°F6.1°C 41.8°F5.4°C 96% 1.0 mph S1.6 kmh S 3.0 mph4.8 kmh 30.18 in1022.0 mb 0.15 in3.8 mm 0.00 in0.0 mm 0.17 in4.3 mm
06:26 PM 42.9°F6.1°C 41.8°F5.4°C 96% 1.0 mph SE1.6 kmh SE 5.0 mph8.0 kmh 30.19 in1022.4 mb 0.15 in3.8 mm 0.00 in0.0 mm 0.17 in4.3 mm
06:28 PM 42.9°F6.1°C 41.8°F5.4°C 96% 1.0 mph S1.6 kmh S 1.0 mph1.6 kmh 30.19 in1022.4 mb 0.11 in2.8 mm 0.00 in0.0 mm 0.17 in4.3 mm
06:30 PM 42.9°F6.1°C 42.1°F5.6°C 97% Calm Calm 2.0 mph3.2 kmh 30.19 in1022.4 mb 0.11 in2.8 mm 0.00 in0.0 mm 0.17 in4.3 mm
06:32 PM 42.9°F6.1°C 42.1°F5.6°C 97% Calm Calm 2.0 mph3.2 kmh 30.18 in1022.0 mb 0.11 in2.8 mm 0.00 in0.0 mm 0.17 in4.3 mm
06:34 PM 42.9°F6.1°C 42.1°F5.6°C 97% 1.0 mph SSE1.6 kmh SSE 2.0 mph3.2 kmh 30.18 in1022.0 mb 0.08 in2.0 mm 0.00 in0.0 mm 0.17 in4.3 mm
06:36 PM 42.9°F6.1°C 42.1°F5.6°C 97% Calm Calm 2.0 mph3.2 kmh 30.18 in1022.0 mb 0.08 in2.0 mm 0.00 in0.0 mm 0.17 in4.3 mm
06:38 PM 42.9°F6.1°C 42.1°F5.6°C 97% Calm Calm -- 30.18 in1022.0 mb 0.06 in1.5 mm 0.00 in0.0 mm 0.17 in4.3 mm
06:41 PM 42.9°F6.1°C 42.1°F5.6°C 97% 1.0 mph SE1.6 kmh SE 2.0 mph3.2 kmh 30.18 in1022.0 mb 0.06 in1.5 mm 0.00 in0.0 mm 0.17 in4.3 mm
06:42 PM 42.9°F6.1°C 42.1°F5.6°C 97% Calm Calm 2.0 mph3.2 kmh 30.18 in1022.0 mb 0.06 in1.5 mm 0.00 in0.0 mm 0.17 in4.3 mm
06:44 PM 42.9°F6.1°C 42.1°F5.6°C 97% 3.0 mph S4.8 kmh S 3.0 mph4.8 kmh 30.18 in1022.0 mb 0.03 in0.8 mm 0.00 in0.0 mm 0.17 in4.3 mm
06:46 PM 42.9°F6.1°C 42.1°F5.6°C 97% Calm Calm 3.0 mph4.8 kmh 30.18 in1022.0 mb 0.03 in0.8 mm 0.00 in0.0 mm 0.17 in4.3 mm
06:48 PM 42.9°F6.1°C 42.1°F5.6°C 97% 2.0 mph ESE3.2 kmh ESE 2.0 mph3.2 kmh 30.18 in1022.0 mb 0.02 in0.5 mm 0.00 in0.0 mm 0.17 in4.3 mm
06:50 PM 42.9°F6.1°C 42.1°F5.6°C 97% Calm Calm 3.0 mph4.8 kmh 30.18 in1022.0 mb 0.02 in0.5 mm 0.00 in0.0 mm 0.17 in4.3 mm
06:52 PM 42.9°F6.1°C 42.1°F5.6°C 97% Calm Calm 3.0 mph4.8 kmh 30.18 in1022.0 mb 0.02 in0.5 mm 0.00 in0.0 mm 0.17 in4.3 mm
06:54 PM 42.9°F6.1°C 42.1°F5.6°C 97% Calm Calm 2.0 mph3.2 kmh 30.18 in1022.0 mb 0.01 in0.3 mm 0.00 in0.0 mm 0.17 in4.3 mm
06:56 PM 42.9°F6.1°C 42.1°F5.6°C 97% Calm Calm 2.0 mph3.2 kmh 30.19 in1022.4 mb 0.01 in0.3 mm 0.00 in0.0 mm 0.17 in4.3 mm
06:58 PM 42.9°F6.1°C 42.1°F5.6°C 97% Calm Calm -- 30.19 in1022.4 mb 0.01 in0.3 mm 0.00 in0.0 mm 0.17 in4.3 mm
07:00 PM 42.9°F6.1°C 42.1°F5.6°C 97% Calm Calm 1.0 mph1.6 kmh 30.18 in1022.0 mb 0.01 in0.3 mm 0.00 in0.0 mm 0.17 in4.3 mm
07:02 PM 42.9°F6.1°C 42.1°F5.6°C 97% 1.0 mph SE1.6 kmh SE 1.0 mph1.6 kmh 30.19 in1022.4 mb 0.01 in0.3 mm 0.00 in0.0 mm 0.17 in4.3 mm
07:04 PM 42.9°F6.1°C 42.1°F5.6°C 97% Calm Calm 1.0 mph1.6 kmh 30.19 in1022.4 mb 0.01 in0.3 mm 0.00 in0.0 mm 0.17 in4.3 mm
07:06 PM 42.9°F6.1°C 42.1°F5.6°C 97% Calm Calm 1.0 mph1.6 kmh 30.19 in1022.4 mb 0.01 in0.3 mm 0.00 in0.0 mm 0.17 in4.3 mm
07:08 PM 42.9°F6.1°C 42.1°F5.6°C 97% Calm Calm -- 30.19 in1022.4 mb 0.01 in0.3 mm 0.00 in0.0 mm 0.17 in4.3 mm
07:10 PM 42.9°F6.1°C 42.1°F5.6°C 97% Calm Calm -- 30.19 in1022.4 mb 0.01 in0.3 mm 0.00 in0.0 mm 0.17 in4.3 mm
07:12 PM 42.9°F6.1°C 42.1°F5.6°C 97% 1.0 mph ESE1.6 kmh ESE 1.0 mph1.6 kmh 30.19 in1022.4 mb 0.01 in0.3 mm 0.00 in0.0 mm 0.17 in4.3 mm
07:14 PM 42.9°F6.1°C 42.1°F5.6°C 97% Calm Calm 2.0 mph3.2 kmh 30.19 in1022.4 mb 0.01 in0.3 mm 0.00 in0.0 mm 0.17 in4.3 mm
07:16 PM 42.9°F6.1°C 42.1°F5.6°C 97% Calm Calm 2.0 mph3.2 kmh 30.19 in1022.4 mb 0.01 in0.3 mm 0.00 in0.0 mm 0.17 in4.3 mm
07:18 PM 43.0°F6.1°C 42.2°F5.7°C 97% Calm Calm -- 30.19 in1022.4 mb 0.00 in0.0 mm 0.00 in0.0 mm 0.17 in4.3 mm
07:20 PM 43.0°F6.1°C 42.2°F5.7°C 97% Calm Calm -- 30.19 in1022.4 mb 0.00 in0.0 mm 0.00 in0.0 mm 0.17 in4.3 mm
07:22 PM 43.0°F6.1°C 42.2°F5.7°C 97% Calm Calm -- 30.19 in1022.4 mb 0.00 in0.0 mm 0.00 in0.0 mm 0.17 in4.3 mm
07:24 PM 43.0°F6.1°C 42.2°F5.7°C 97% Calm Calm -- 30.19 in1022.4 mb 0.00 in0.0 mm 0.00 in0.0 mm 0.17 in4.3 mm
07:26 PM 43.0°F6.1°C 42.2°F5.7°C 97% Calm Calm -- 30.19 in1022.4 mb 0.00 in0.0 mm 0.00 in0.0 mm 0.17 in4.3 mm
07:28 PM 43.0°F6.1°C 42.2°F5.7°C 97% Calm Calm -- 30.19 in1022.4 mb 0.00 in0.0 mm 0.00 in0.0 mm 0.17 in4.3 mm
07:30 PM 43.0°F6.1°C 42.2°F5.7°C 97% Calm Calm -- 30.19 in1022.4 mb 0.00 in0.0 mm 0.00 in0.0 mm 0.17 in4.3 mm
07:32 PM 43.0°F6.1°C 42.2°F5.7°C 97% Calm Calm -- 30.19 in1022.4 mb 0.00 in0.0 mm 0.00 in0.0 mm 0.17 in4.3 mm
07:34 PM 43.0°F6.1°C 42.2°F5.7°C 97% Calm Calm -- 30.19 in1022.4 mb 0.00 in0.0 mm 0.00 in0.0 mm 0.17 in4.3 mm
07:36 PM 43.0°F6.1°C 42.2°F5.7°C 97% Calm Calm -- 30.19 in1022.4 mb 0.00 in0.0 mm 0.00 in0.0 mm 0.17 in4.3 mm
07:38 PM 43.0°F6.1°C 42.2°F5.7°C 97% Calm Calm -- 30.18 in1022.0 mb 0.00 in0.0 mm 0.00 in0.0 mm 0.17 in4.3 mm
07:40 PM 43.0°F6.1°C 42.2°F5.7°C 97% Calm Calm -- 30.18 in1022.0 mb 0.00 in0.0 mm 0.00 in0.0 mm 0.17 in4.3 mm
07:42 PM 43.1°F6.2°C 42.3°F5.7°C 97% Calm Calm -- 30.18 in1022.0 mb 0.00 in0.0 mm 0.00 in0.0 mm 0.17 in4.3 mm
07:44 PM 43.0°F6.1°C 42.2°F5.7°C 97% Calm Calm -- 30.18 in1022.0 mb 0.00 in0.0 mm 0.00 in0.0 mm 0.17 in4.3 mm
07:46 PM 43.0°F6.1°C 42.2°F5.7°C 97% 1.0 mph SSW1.6 kmh SSW 2.0 mph3.2 kmh 30.17 in1021.7 mb 0.00 in0.0 mm 0.00 in0.0 mm 0.17 in4.3 mm
07:48 PM 43.0°F6.1°C 42.2°F5.7°C 97% 1.0 mph S1.6 kmh S 1.0 mph1.6 kmh 30.18 in1022.0 mb 0.00 in0.0 mm 0.00 in0.0 mm 0.17 in4.3 mm
07:50 PM 43.0°F6.1°C 42.2°F5.7°C 97% Calm Calm 1.0 mph1.6 kmh 30.18 in1022.0 mb 0.00 in0.0 mm 0.00 in0.0 mm 0.17 in4.3 mm
07:52 PM 43.1°F6.2°C 42.3°F5.7°C 97% Calm Calm 1.0 mph1.6 kmh 30.18 in1022.0 mb 0.00 in0.0 mm 0.00 in0.0 mm 0.17 in4.3 mm
07:54 PM 43.1°F6.2°C 42.3°F5.7°C 97% Calm Calm -- 30.18 in1022.0 mb 0.00 in0.0 mm 0.00 in0.0 mm 0.17 in4.3 mm
07:56 PM 43.1°F6.2°C 42.3°F5.7°C 97% Calm Calm -- 30.18 in1022.0 mb 0.00 in0.0 mm 0.00 in0.0 mm 0.17 in4.3 mm
07:58 PM 43.1°F6.2°C 42.3°F5.7°C 97% Calm Calm -- 30.18 in1022.0 mb 0.00 in0.0 mm 0.00 in0.0 mm 0.17 in4.3 mm
08:00 PM 43.1°F6.2°C 42.3°F5.7°C 97% Calm Calm 1.0 mph1.6 kmh 30.18 in1022.0 mb 0.00 in0.0 mm 0.00 in0.0 mm 0.17 in4.3 mm
08:02 PM 43.1°F6.2°C 42.3°F5.7°C 97% Calm Calm 1.0 mph1.6 kmh 30.18 in1022.0 mb 0.00 in0.0 mm 0.00 in0.0 mm 0.17 in4.3 mm
08:04 PM 43.2°F6.2°C 42.4°F5.8°C 97% Calm Calm -- 30.18 in1022.0 mb 0.00 in0.0 mm 0.00 in0.0 mm 0.17 in4.3 mm
08:06 PM 43.2°F6.2°C 42.4°F5.8°C 97% Calm Calm -- 30.18 in1022.0 mb 0.00 in0.0 mm 0.00 in0.0 mm 0.17 in4.3 mm
08:08 PM 43.2°F6.2°C 42.4°F5.8°C 97% Calm Calm -- 30.18 in1022.0 mb 0.00 in0.0 mm 0.00 in0.0 mm 0.17 in4.3 mm
08:10 PM 43.2°F6.2°C 42.4°F5.8°C 97% Calm Calm -- 30.18 in1022.0 mb 0.00 in0.0 mm 0.00 in0.0 mm 0.17 in4.3 mm
08:12 PM 43.2°F6.2°C 42.4°F5.8°C 97% Calm Calm -- 30.18 in1022.0 mb 0.00 in0.0 mm 0.00 in0.0 mm 0.17 in4.3 mm
08:14 PM 43.2°F6.2°C 42.4°F5.8°C 97% Calm Calm 1.0 mph1.6 kmh 30.18 in1022.0 mb 0.00 in0.0 mm 0.00 in0.0 mm 0.17 in4.3 mm
08:16 PM 43.2°F6.2°C 42.4°F5.8°C 97% Calm Calm 1.0 mph1.6 kmh 30.18 in1022.0 mb 0.00 in0.0 mm 0.00 in0.0 mm 0.17 in4.3 mm
08:18 PM 43.3°F6.3°C 42.5°F5.8°C 97% Calm Calm -- 30.18 in1022.0 mb 0.00 in0.0 mm 0.00 in0.0 mm 0.17 in4.3 mm
08:20 PM 43.3°F6.3°C 42.5°F5.8°C 97% Calm Calm 1.0 mph1.6 kmh 30.18 in1022.0 mb 0.00 in0.0 mm 0.00 in0.0 mm 0.17 in4.3 mm
08:22 PM 43.3°F6.3°C 42.5°F5.8°C 97% 1.0 mph SW1.6 kmh SW 1.0 mph1.6 kmh 30.18 in1022.0 mb 0.00 in0.0 mm 0.00 in0.0 mm 0.17 in4.3 mm
08:24 PM 43.3°F6.3°C 42.5°F5.8°C 97% Calm Calm 1.0 mph1.6 kmh 30.19 in1022.4 mb 0.00 in0.0 mm 0.00 in0.0 mm 0.17 in4.3 mm
08:26 PM 43.4°F6.3°C 42.6°F5.9°C 97% Calm Calm 1.0 mph1.6 kmh 30.18 in1022.0 mb 0.00 in0.0 mm 0.00 in0.0 mm 0.17 in4.3 mm
08:28 PM 43.4°F6.3°C 42.6°F5.9°C 97% Calm Calm -- 30.19 in1022.4 mb 0.00 in0.0 mm 0.00 in0.0 mm 0.17 in4.3 mm
08:30 PM 43.4°F6.3°C 42.6°F5.9°C 97% 1.0 mph E1.6 kmh E 2.0 mph3.2 kmh 30.19 in1022.4 mb 0.00 in0.0 mm 0.00 in0.0 mm 0.17 in4.3 mm
08:32 PM 43.4°F6.3°C 42.6°F5.9°C 97% Calm Calm 2.0 mph3.2 kmh 30.19 in1022.4 mb 0.00 in0.0 mm 0.00 in0.0 mm 0.17 in4.3 mm
08:34 PM 43.4°F6.3°C 42.6°F5.9°C 97% Calm Calm -- 30.19 in1022.4 mb 0.00 in0.0 mm 0.00 in0.0 mm 0.17 in4.3 mm
08:36 PM 43.4°F6.3°C 42.6°F5.9°C 97% Calm Calm 1.0 mph1.6 kmh 30.19 in1022.4 mb 0.00 in0.0 mm 0.00 in0.0 mm 0.17 in4.3 mm
08:38 PM 43.4°F6.3°C 42.6°F5.9°C 97% Calm Calm -- 30.19 in1022.4 mb 0.00 in0.0 mm 0.00 in0.0 mm 0.17 in4.3 mm
08:40 PM 43.4°F6.3°C 42.6°F5.9°C 97% Calm Calm -- 30.19 in1022.4 mb 0.00 in0.0 mm 0.00 in0.0 mm 0.17 in4.3 mm
08:42 PM 43.4°F6.3°C 42.6°F5.9°C 97% Calm Calm 1.0 mph1.6 kmh 30.19 in1022.4 mb 0.00 in0.0 mm 0.00 in0.0 mm 0.17 in4.3 mm
08:44 PM 43.4°F6.3°C 42.6°F5.9°C 97% Calm Calm -- 30.19 in1022.4 mb 0.00 in0.0 mm 0.00 in0.0 mm 0.17 in4.3 mm
08:46 PM 43.4°F6.3°C 42.6°F5.9°C 97% Calm Calm 1.0 mph1.6 kmh 30.19 in1022.4 mb 0.00 in0.0 mm 0.00 in0.0 mm 0.17 in4.3 mm
08:48 PM 43.4°F6.3°C 42.6°F5.9°C 97% Calm Calm -- 30.19 in1022.4 mb 0.00 in0.0 mm 0.00 in0.0 mm 0.17 in4.3 mm
08:50 PM 43.4°F6.3°C 42.6°F5.9°C 97% Calm Calm -- 30.19 in1022.4 mb 0.00 in0.0 mm 0.00 in0.0 mm 0.17 in4.3 mm
08:52 PM 43.4°F6.3°C 42.6°F5.9°C 97% Calm Calm -- 30.19 in1022.4 mb 0.00 in0.0 mm 0.00 in0.0 mm 0.17 in4.3 mm
08:54 PM 43.5°F6.4°C 42.7°F5.9°C 97% Calm Calm -- 30.19 in1022.4 mb 0.00 in0.0 mm 0.00 in0.0 mm 0.17 in4.3 mm
08:56 PM 43.5°F6.4°C 42.7°F5.9°C 97% Calm Calm -- 30.19 in1022.4 mb 0.00 in0.0 mm 0.00 in0.0 mm 0.17 in4.3 mm
08:58 PM 43.5°F6.4°C 42.7°F5.9°C 97% Calm Calm -- 30.19 in1022.4 mb 0.00 in0.0 mm 0.00 in0.0 mm 0.17 in4.3 mm
09:00 PM 43.5°F6.4°C 42.7°F5.9°C 97% Calm Calm -- 30.19 in1022.4 mb 0.00 in0.0 mm 0.00 in0.0 mm 0.17 in4.3 mm
09:02 PM 43.5°F6.4°C 42.7°F5.9°C 97% Calm Calm -- 30.19 in1022.4 mb 0.00 in0.0 mm 0.00 in0.0 mm 0.17 in4.3 mm
09:04 PM 43.5°F6.4°C 42.7°F5.9°C 97% Calm Calm -- 30.19 in1022.4 mb 0.00 in0.0 mm 0.00 in0.0 mm 0.17 in4.3 mm
09:06 PM 43.5°F6.4°C 42.7°F5.9°C 97% Calm Calm -- 30.19 in1022.4 mb 0.00 in0.0 mm 0.00 in0.0 mm 0.17 in4.3 mm
09:08 PM 43.5°F6.4°C 42.7°F5.9°C 97% Calm Calm -- 30.19 in1022.4 mb 0.00 in0.0 mm 0.00 in0.0 mm 0.17 in4.3 mm
09:10 PM 43.5°F6.4°C 42.7°F5.9°C 97% Calm Calm 2.0 mph3.2 kmh 30.19 in1022.4 mb 0.00 in0.0 mm 0.00 in0.0 mm 0.17 in4.3 mm
09:12 PM 43.5°F6.4°C 42.7°F5.9°C 97% Calm Calm 2.0 mph3.2 kmh 30.18 in1022.0 mb 0.00 in0.0 mm 0.00 in0.0 mm 0.17 in4.3 mm
09:14 PM 43.5°F6.4°C 42.7°F5.9°C 97% Calm Calm -- 30.18 in1022.0 mb 0.00 in0.0 mm 0.00 in0.0 mm 0.17 in4.3 mm
09:16 PM 43.5°F6.4°C 42.7°F5.9°C 97% Calm Calm -- 30.18 in1022.0 mb 0.00 in0.0 mm 0.00 in0.0 mm 0.17 in4.3 mm
09:18 PM 43.5°F6.4°C 42.7°F5.9°C 97% Calm Calm -- 30.18 in1022.0 mb 0.00 in0.0 mm 0.00 in0.0 mm 0.17 in4.3 mm
09:20 PM 43.5°F6.4°C 42.7°F5.9°C 97% Calm Calm -- 30.18 in1022.0 mb 0.00 in0.0 mm 0.00 in0.0 mm 0.17 in4.3 mm
09:22 PM 43.5°F6.4°C 42.7°F5.9°C 97% Calm Calm -- 30.18 in1022.0 mb 0.00 in0.0 mm 0.00 in0.0 mm 0.17 in4.3 mm
09:24 PM 43.6°F6.4°C 42.8°F6.0°C 97% Calm Calm -- 30.18 in1022.0 mb 0.00 in0.0 mm 0.00 in0.0 mm 0.17 in4.3 mm
09:26 PM 43.5°F6.4°C 42.7°F5.9°C 97% Calm Calm -- 30.19 in1022.4 mb 0.00 in0.0 mm 0.00 in0.0 mm 0.17 in4.3 mm
09:28 PM 43.6°F6.4°C 42.8°F6.0°C 97% Calm Calm -- 30.19 in1022.4 mb 0.00 in0.0 mm 0.00 in0.0 mm 0.17 in4.3 mm
09:30 PM 43.6°F6.4°C 42.8°F6.0°C 97% Calm Calm -- 30.19 in1022.4 mb 0.00 in0.0 mm 0.00 in0.0 mm 0.17 in4.3 mm
09:32 PM 43.6°F6.4°C 42.8°F6.0°C 97% Calm Calm -- 30.19 in1022.4 mb 0.00 in0.0 mm 0.00 in0.0 mm 0.17 in4.3 mm
09:34 PM 43.5°F6.4°C 42.7°F5.9°C 97% Calm Calm -- 30.19 in1022.4 mb 0.00 in0.0 mm 0.00 in0.0 mm 0.17 in4.3 mm
09:36 PM 43.6°F6.4°C 42.8°F6.0°C 97% Calm Calm -- 30.19 in1022.4 mb 0.00 in0.0 mm 0.00 in0.0 mm 0.17 in4.3 mm
09:38 PM 43.6°F6.4°C 42.8°F6.0°C 97% Calm Calm -- 30.19 in1022.4 mb 0.00 in0.0 mm 0.00 in0.0 mm 0.17 in4.3 mm
09:40 PM 43.6°F6.4°C 42.8°F6.0°C 97% Calm Calm -- 30.19 in1022.4 mb 0.00 in0.0 mm 0.00 in0.0 mm 0.17 in4.3 mm
09:42 PM 43.6°F6.4°C 42.8°F6.0°C 97% Calm Calm 1.0 mph1.6 kmh 30.19 in1022.4 mb 0.00 in0.0 mm 0.00 in0.0 mm 0.17 in4.3 mm
09:44 PM 43.6°F6.4°C 42.8°F6.0°C 97% Calm Calm -- 30.19 in1022.4 mb 0.00 in0.0 mm 0.00 in0.0 mm 0.17 in4.3 mm
09:46 PM 43.6°F6.4°C 42.8°F6.0°C 97% 2.0 mph SW3.2 kmh SW 2.0 mph3.2 kmh 30.19 in1022.4 mb 0.00 in0.0 mm 0.00 in0.0 mm 0.17 in4.3 mm
09:48 PM 43.6°F6.4°C 42.8°F6.0°C 97% Calm Calm -- 30.19 in1022.4 mb 0.00 in0.0 mm 0.00 in0.0 mm 0.17 in4.3 mm
09:50 PM 43.6°F6.4°C 42.8°F6.0°C 97% 3.0 mph SW4.8 kmh SW 3.0 mph4.8 kmh 30.19 in1022.4 mb 0.00 in0.0 mm 0.00 in0.0 mm 0.17 in4.3 mm
09:52 PM 43.7°F6.5°C 42.9°F6.1°C 97% Calm Calm 3.0 mph4.8 kmh 30.19 in1022.4 mb 0.00 in0.0 mm 0.00 in0.0 mm 0.17 in4.3 mm
09:54 PM 43.7°F6.5°C 42.9°F6.1°C 97% Calm Calm -- 30.19 in1022.4 mb 0.00 in0.0 mm 0.00 in0.0 mm 0.17 in4.3 mm
09:56 PM 43.7°F6.5°C 42.9°F6.1°C 97% Calm Calm 1.0 mph1.6 kmh 30.18 in1022.0 mb 0.00 in0.0 mm 0.00 in0.0 mm 0.17 in4.3 mm
09:58 PM 42.7°F5.9°C 41.9°F5.5°C 97% 1.0 mph SE1.6 kmh SE 2.0 mph3.2 kmh 30.18 in1022.0 mb 0.00 in0.0 mm 0.00 in0.0 mm 0.17 in4.3 mm
10:00 PM 42.9°F6.1°C 42.9°F6.1°C 100% 1.0 mph SSE1.6 kmh SSE 2.0 mph3.2 kmh 30.18 in1022.0 mb 0.00 in0.0 mm 0.00 in0.0 mm 0.17 in4.3 mm
10:02 PM 42.9°F6.1°C 42.9°F6.1°C 100% 1.0 mph SSE1.6 kmh SSE 2.0 mph3.2 kmh 30.18 in1022.0 mb 0.00 in0.0 mm 0.00 in0.0 mm 0.17 in4.3 mm
10:04 PM 42.9°F6.1°C 42.9°F6.1°C 100% 1.0 mph SSE1.6 kmh SSE 1.0 mph1.6 kmh 30.18 in1022.0 mb 0.00 in0.0 mm 0.00 in0.0 mm 0.17 in4.3 mm
10:06 PM 42.9°F6.1°C 42.9°F6.1°C 100% 1.0 mph SSE1.6 kmh SSE 1.0 mph1.6 kmh 30.18 in1022.0 mb 0.00 in0.0 mm 0.00 in0.0 mm 0.17 in4.3 mm
10:08 PM 42.9°F6.1°C 42.9°F6.1°C 100% 1.0 mph SSE1.6 kmh SSE 1.0 mph1.6 kmh 30.19 in1022.4 mb 0.00 in0.0 mm 0.00 in0.0 mm 0.17 in4.3 mm
10:10 PM 42.9°F6.1°C 42.9°F6.1°C 100% 1.0 mph SSE1.6 kmh SSE 1.0 mph1.6 kmh 30.18 in1022.0 mb 0.00 in0.0 mm 0.00 in0.0 mm 0.17 in4.3 mm
10:12 PM 42.9°F6.1°C 42.9°F6.1°C 100% 1.0 mph SSE1.6 kmh SSE 1.0 mph1.6 kmh 30.18 in1022.0 mb 0.00 in0.0 mm 0.00 in0.0 mm 0.17 in4.3 mm
10:14 PM 42.9°F6.1°C 42.9°F6.1°C 100% 1.0 mph SSE1.6 kmh SSE 1.0 mph1.6 kmh 30.18 in1022.0 mb 0.00 in0.0 mm 0.00 in0.0 mm 0.17 in4.3 mm
10:16 PM 42.9°F6.1°C 42.9°F6.1°C 100% 1.0 mph SSE1.6 kmh SSE 1.0 mph1.6 kmh 30.18 in1022.0 mb 0.00 in0.0 mm 0.00 in0.0 mm 0.17 in4.3 mm
10:18 PM 42.9°F6.1°C 42.9°F6.1°C 100% 1.0 mph SSE1.6 kmh SSE 1.0 mph1.6 kmh 30.18 in1022.0 mb 0.00 in0.0 mm 0.00 in0.0 mm 0.17 in4.3 mm
10:20 PM 42.9°F6.1°C 42.9°F6.1°C 100% 1.0 mph SSE1.6 kmh SSE 1.0 mph1.6 kmh 30.18 in1022.0 mb 0.00 in0.0 mm 0.00 in0.0 mm 0.17 in4.3 mm
10:22 PM 42.9°F6.1°C 42.9°F6.1°C 100% 1.0 mph SSE1.6 kmh SSE 1.0 mph1.6 kmh 30.19 in1022.4 mb 0.00 in0.0 mm 0.00 in0.0 mm 0.17 in4.3 mm
10:24 PM 42.9°F6.1°C 42.9°F6.1°C 100% 1.0 mph SSE1.6 kmh SSE 1.0 mph1.6 kmh 30.19 in1022.4 mb 0.00 in0.0 mm 0.00 in0.0 mm 0.17 in4.3 mm
10:26 PM 42.9°F6.1°C 42.9°F6.1°C 100% 1.0 mph SSE1.6 kmh SSE 1.0 mph1.6 kmh 30.19 in1022.4 mb 0.00 in0.0 mm 0.00 in0.0 mm 0.17 in4.3 mm
10:28 PM 42.9°F6.1°C 42.9°F6.1°C 100% 1.0 mph SSE1.6 kmh SSE 1.0 mph1.6 kmh 30.19 in1022.4 mb 0.00 in0.0 mm 0.00 in0.0 mm 0.17 in4.3 mm
10:30 PM 42.9°F6.1°C 42.9°F6.1°C 100% 1.0 mph SSE1.6 kmh SSE 1.0 mph1.6 kmh 30.19 in1022.4 mb 0.00 in0.0 mm 0.00 in0.0 mm 0.17 in4.3 mm
10:32 PM 42.9°F6.1°C 42.9°F6.1°C 100% 1.0 mph SSE1.6 kmh SSE 1.0 mph1.6 kmh 30.18 in1022.0 mb 0.00 in0.0 mm 0.00 in0.0 mm 0.17 in4.3 mm
10:34 PM 42.9°F6.1°C 42.9°F6.1°C 100% 1.0 mph SSE1.6 kmh SSE 1.0 mph1.6 kmh 30.18 in1022.0 mb 0.00 in0.0 mm 0.00 in0.0 mm 0.17 in4.3 mm
10:36 PM 42.9°F6.1°C 42.9°F6.1°C 100% 1.0 mph SSE1.6 kmh SSE 1.0 mph1.6 kmh 30.18 in1022.0 mb 0.00 in0.0 mm 0.00 in0.0 mm 0.17 in4.3 mm
10:38 PM 42.9°F6.1°C 42.9°F6.1°C 100% 1.0 mph SSE1.6 kmh SSE 1.0 mph1.6 kmh 30.18 in1022.0 mb 0.00 in0.0 mm 0.00 in0.0 mm 0.17 in4.3 mm
10:40 PM 42.9°F6.1°C 42.9°F6.1°C 100% 1.0 mph SSE1.6 kmh SSE 1.0 mph1.6 kmh 30.18 in1022.0 mb 0.00 in0.0 mm 0.00 in0.0 mm 0.17 in4.3 mm
10:42 PM 42.9°F6.1°C 42.9°F6.1°C 100% 1.0 mph SSE1.6 kmh SSE 1.0 mph1.6 kmh 30.18 in1022.0 mb 0.00 in0.0 mm 0.00 in0.0 mm 0.17 in4.3 mm
10:44 PM 42.9°F6.1°C 42.9°F6.1°C 100% 1.0 mph SSE1.6 kmh SSE 1.0 mph1.6 kmh 30.19 in1022.4 mb 0.00 in0.0 mm 0.00 in0.0 mm 0.17 in4.3 mm
10:46 PM 42.9°F6.1°C 42.9°F6.1°C 100% 1.0 mph SSE1.6 kmh SSE 1.0 mph1.6 kmh 30.19 in1022.4 mb 0.00 in0.0 mm 0.00 in0.0 mm 0.17 in4.3 mm
10:48 PM 42.9°F6.1°C 42.9°F6.1°C 100% 1.0 mph SSE1.6 kmh SSE 1.0 mph1.6 kmh 30.18 in1022.0 mb 0.00 in0.0 mm 0.00 in0.0 mm 0.17 in4.3 mm
10:50 PM 42.9°F6.1°C 42.9°F6.1°C 100% 1.0 mph SSE1.6 kmh SSE 1.0 mph1.6 kmh 30.18 in1022.0 mb 0.00 in0.0 mm 0.00 in0.0 mm 0.17 in4.3 mm
10:52 PM 42.9°F6.1°C 42.9°F6.1°C 100% 1.0 mph SSE1.6 kmh SSE 1.0 mph1.6 kmh 30.18 in1022.0 mb 0.00 in0.0 mm 0.00 in0.0 mm 0.17 in4.3 mm
10:54 PM 42.9°F6.1°C 42.9°F6.1°C 100% 1.0 mph SSE1.6 kmh SSE 1.0 mph1.6 kmh 30.18 in1022.0 mb 0.00 in0.0 mm 0.00 in0.0 mm 0.17 in4.3 mm
10:56 PM 42.9°F6.1°C 42.9°F6.1°C 100% 1.0 mph SSE1.6 kmh SSE 1.0 mph1.6 kmh 30.18 in1022.0 mb 0.00 in0.0 mm 0.00 in0.0 mm 0.17 in4.3 mm
10:58 PM 42.9°F6.1°C 42.9°F6.1°C 100% 1.0 mph SSE1.6 kmh SSE 1.0 mph1.6 kmh 30.18 in1022.0 mb 0.00 in0.0 mm 0.00 in0.0 mm 0.17 in4.3 mm
11:00 PM 42.9°F6.1°C 42.9°F6.1°C 100% 1.0 mph SSE1.6 kmh SSE 1.0 mph1.6 kmh 30.18 in1022.0 mb 0.00 in0.0 mm 0.00 in0.0 mm 0.17 in4.3 mm
11:02 PM 42.9°F6.1°C 42.9°F6.1°C 100% 1.0 mph SSE1.6 kmh SSE 1.0 mph1.6 kmh 30.18 in1022.0 mb 0.00 in0.0 mm 0.00 in0.0 mm 0.17 in4.3 mm
11:04 PM 42.9°F6.1°C 42.9°F6.1°C 100% 1.0 mph SSE1.6 kmh SSE 1.0 mph1.6 kmh 30.18 in1022.0 mb 0.00 in0.0 mm 0.00 in0.0 mm 0.17 in4.3 mm
11:06 PM 42.9°F6.1°C 42.9°F6.1°C 100% 1.0 mph SSE1.6 kmh SSE 1.0 mph1.6 kmh 30.18 in1022.0 mb 0.00 in0.0 mm 0.00 in0.0 mm 0.17 in4.3 mm
11:08 PM 42.9°F6.1°C 42.9°F6.1°C 100% 1.0 mph SSE1.6 kmh SSE 1.0 mph1.6 kmh 30.17 in1021.7 mb 0.00 in0.0 mm 0.00 in0.0 mm 0.17 in4.3 mm
11:10 PM 42.9°F6.1°C 42.9°F6.1°C 100% 1.0 mph SSE1.6 kmh SSE 1.0 mph1.6 kmh 30.18 in1022.0 mb 0.00 in0.0 mm 0.00 in0.0 mm 0.17 in4.3 mm
11:12 PM 42.9°F6.1°C 42.9°F6.1°C 100% 1.0 mph SSE1.6 kmh SSE 1.0 mph1.6 kmh 30.17 in1021.7 mb 0.00 in0.0 mm 0.00 in0.0 mm 0.17 in4.3 mm
11:14 PM 42.9°F6.1°C 42.9°F6.1°C 100% 1.0 mph SSE1.6 kmh SSE 1.0 mph1.6 kmh 30.17 in1021.7 mb 0.00 in0.0 mm 0.00 in0.0 mm 0.17 in4.3 mm
11:16 PM 42.9°F6.1°C 42.9°F6.1°C 100% 1.0 mph SSE1.6 kmh SSE 1.0 mph1.6 kmh 30.17 in1021.7 mb 0.00 in0.0 mm 0.00 in0.0 mm 0.17 in4.3 mm
11:18 PM 42.9°F6.1°C 42.9°F6.1°C 100% 1.0 mph SSE1.6 kmh SSE 1.0 mph1.6 kmh 30.18 in1022.0 mb 0.00 in0.0 mm 0.00 in0.0 mm 0.17 in4.3 mm
11:20 PM 42.9°F6.1°C 42.9°F6.1°C 100% 1.0 mph SSE1.6 kmh SSE 1.0 mph1.6 kmh 30.18 in1022.0 mb 0.00 in0.0 mm 0.00 in0.0 mm 0.17 in4.3 mm
11:22 PM 42.9°F6.1°C 42.9°F6.1°C 100% 1.0 mph SSE1.6 kmh SSE 1.0 mph1.6 kmh 30.18 in1022.0 mb 0.00 in0.0 mm 0.00 in0.0 mm 0.17 in4.3 mm
11:24 PM 42.9°F6.1°C 42.9°F6.1°C 100% 1.0 mph SSE1.6 kmh SSE 1.0 mph1.6 kmh 30.18 in1022.0 mb 0.00 in0.0 mm 0.00 in0.0 mm 0.17 in4.3 mm
11:26 PM 42.9°F6.1°C 42.9°F6.1°C 100% 1.0 mph SSE1.6 kmh SSE 1.0 mph1.6 kmh 30.18 in1022.0 mb 0.00 in0.0 mm 0.00 in0.0 mm 0.17 in4.3 mm
11:28 PM 42.9°F6.1°C 42.9°F6.1°C 100% 1.0 mph SSE1.6 kmh SSE 1.0 mph1.6 kmh 30.18 in1022.0 mb 0.00 in0.0 mm 0.00 in0.0 mm 0.17 in4.3 mm
11:30 PM 42.9°F6.1°C 42.9°F6.1°C 100% 1.0 mph SSE1.6 kmh SSE 1.0 mph1.6 kmh 30.18 in1022.0 mb 0.00 in0.0 mm 0.00 in0.0 mm 0.17 in4.3 mm
11:32 PM 42.9°F6.1°C 42.9°F6.1°C 100% 1.0 mph SSE1.6 kmh SSE 1.0 mph1.6 kmh 30.18 in1022.0 mb 0.00 in0.0 mm 0.00 in0.0 mm 0.17 in4.3 mm
11:34 PM 42.9°F6.1°C 42.9°F6.1°C 100% 1.0 mph SSE1.6 kmh SSE 1.0 mph1.6 kmh 30.18 in1022.0 mb 0.00 in0.0 mm 0.00 in0.0 mm 0.17 in4.3 mm
11:36 PM 42.9°F6.1°C 42.9°F6.1°C 100% 1.0 mph SSE1.6 kmh SSE 1.0 mph1.6 kmh 30.18 in1022.0 mb 0.00 in0.0 mm 0.00 in0.0 mm 0.17 in4.3 mm
11:38 PM 42.9°F6.1°C 42.9°F6.1°C 100% 1.0 mph SSE1.6 kmh SSE 1.0 mph1.6 kmh 30.18 in1022.0 mb 0.00 in0.0 mm 0.00 in0.0 mm 0.17 in4.3 mm
11:40 PM 42.9°F6.1°C 42.9°F6.1°C 100% 1.0 mph SSE1.6 kmh SSE 1.0 mph1.6 kmh 30.18 in1022.0 mb 0.00 in0.0 mm 0.00 in0.0 mm 0.17 in4.3 mm
11:42 PM 42.9°F6.1°C 42.9°F6.1°C 100% 1.0 mph SSE1.6 kmh SSE 1.0 mph1.6 kmh 30.18 in1022.0 mb 0.00 in0.0 mm 0.00 in0.0 mm 0.17 in4.3 mm
11:44 PM 42.9°F6.1°C 42.9°F6.1°C 100% 1.0 mph SSE1.6 kmh SSE 1.0 mph1.6 kmh 30.18 in1022.0 mb 0.00 in0.0 mm 0.00 in0.0 mm 0.17 in4.3 mm
11:46 PM 42.9°F6.1°C 42.9°F6.1°C 100% 1.0 mph SSE1.6 kmh SSE 1.0 mph1.6 kmh 30.18 in1022.0 mb 0.00 in0.0 mm 0.00 in0.0 mm 0.17 in4.3 mm
11:48 PM 42.9°F6.1°C 42.9°F6.1°C 100% 1.0 mph SSE1.6 kmh SSE 1.0 mph1.6 kmh 30.19 in1022.4 mb 0.00 in0.0 mm 0.00 in0.0 mm 0.17 in4.3 mm
11:50 PM 42.9°F6.1°C 42.9°F6.1°C 100% 1.0 mph SSE1.6 kmh SSE 1.0 mph1.6 kmh 30.19 in1022.4 mb 0.00 in0.0 mm 0.00 in0.0 mm 0.17 in4.3 mm
11:52 PM 42.9°F6.1°C 42.9°F6.1°C 100% 1.0 mph SSE1.6 kmh SSE 1.0 mph1.6 kmh 30.18 in1022.0 mb 0.00 in0.0 mm 0.00 in0.0 mm 0.17 in4.3 mm
11:54 PM 42.9°F6.1°C 42.9°F6.1°C 100% 1.0 mph SSE1.6 kmh SSE 1.0 mph1.6 kmh 30.19 in1022.4 mb 0.00 in0.0 mm 0.00 in0.0 mm 0.17 in4.3 mm
11:56 PM 42.9°F6.1°C 42.9°F6.1°C 100% 1.0 mph SSE1.6 kmh SSE 1.0 mph1.6 kmh 30.19 in1022.4 mb 0.00 in0.0 mm 0.00 in0.0 mm 0.17 in4.3 mm
11:58 PM 42.9°F6.1°C 42.9°F6.1°C 100% 1.0 mph SSE1.6 kmh SSE 1.0 mph1.6 kmh 30.19 in1022.4 mb 0.00 in0.0 mm 0.00 in0.0 mm 0.17 in4.3 mm